Observation data for Sierra Blanca on 11/11/2019      Previous  Date       Current Mesonet Observations  Soil Data  Daily Summary Page  Observations in Plain Language
KSB1 110600Z 24005KT 18/10 A3008 RMK A01 T01840103  RH  059%=      5-min Rain = 0
KSB1 110601Z 25005KT 18/10 A3008 RMK A01 T01820103  RH  060%=      5-min Rain = 0
KSB1 110602Z 26005KT 18/10 A3008 RMK A01 T01800103  RH  060%=      5-min Rain = 0
KSB1 110603Z 26004KT 18/10 A3008 RMK A01 T01790102  RH  061%=      5-min Rain = 0
KSB1 110604Z 26005KT 18/10 A3008 RMK A01 T01780102  RH  061%=      5-min Rain = 0
KSB1 110605Z 26005KT 18/10 A3008 RMK A01 T01780102  RH  061%=      5-min Rain = 0
KSB1 110606Z 26005KT 18/10 A3008 RMK A01 T01780102  RH  061%=      5-min Rain = 0
KSB1 110607Z 25005KT 18/10 A3008 RMK A01 T01770102  RH  061%=      5-min Rain = 0
KSB1 110608Z 24006KT 18/10 A3008 RMK A01 T01760101  RH  062%=      5-min Rain = 0
KSB1 110609Z 24007KT 18/10 A3008 RMK A01 T01750101  RH  062%=      5-min Rain = 0
KSB1 110610Z 23009KT 17/10 A3009 RMK A01 T01740101  RH  062%=      5-min Rain = 0
KSB1 110611Z 23010KT 17/10 A3009 RMK A01 T01730101  RH  062%=      5-min Rain = 0
KSB1 110612Z 23010KT 17/10 A3009 RMK A01 T01740102  RH  063%=      5-min Rain = 0
KSB1 110613Z 23010KT 18/10 A3009 RMK A01 T01760103  RH  062%=      5-min Rain = 0
KSB1 110614Z 23011KT 18/10 A3009 RMK A01 T01770103  RH  062%=      5-min Rain = 0
KSB1 110615Z 23011KT 18/10 A3009 RMK A01 T01780104  RH  062%=      5-min Rain = 0
KSB1 110616Z 23011KT 18/10 A3009 RMK A01 T01790104  RH  061%=      5-min Rain = 0
KSB1 110617Z 23013KT 18/10 A3009 RMK A01 T01800104  RH  061%=      5-min Rain = 0
KSB1 110618Z 23012KT 18/11 A3009 RMK A01 T01820107  RH  061%=      5-min Rain = 0
KSB1 110619Z 24011KT 18/11 A3009 RMK A01 T01830107  RH  061%=      5-min Rain = 0
KSB1 110620Z 23011KT 18/11 A3009 RMK A01 T01840107  RH  061%=      5-min Rain = 0
KSB1 110621Z 24012KT 19/11 A3009 RMK A01 T01850107  RH  060%=      5-min Rain = 0
KSB1 110622Z 23010KT 19/11 A3009 RMK A01 T01870106  RH  059%=      5-min Rain = 0
KSB1 110623Z 24011KT 19/11 A3009 RMK A01 T01880107  RH  059%=      5-min Rain = 0
KSB1 110624Z 24011KT 19/11 A3009 RMK A01 T01870105  RH  059%=      5-min Rain = 0
KSB1 110625Z 23010KT 19/10 A3009 RMK A01 T01880104  RH  058%=      5-min Rain = 0
KSB1 110626Z 24011KT 19/10 A3009 RMK A01 T01890104  RH  058%=      5-min Rain = 0
KSB1 110627Z 24009KT 19/10 A3009 RMK A01 T01890104  RH  058%=      5-min Rain = 0
KSB1 110628Z 24011KT 19/10 A3009 RMK A01 T01890104  RH  057%=      5-min Rain = 0
KSB1 110629Z 24014KT 19/10 A3008 RMK A01 T01900104  RH  057%=      5-min Rain = 0
KSB1 110630Z 25010KT 19/10 A3008 RMK A01 T01920104  RH  057%=      5-min Rain = 0
KSB1 110631Z 24010KT 19/10 A3008 RMK A01 T01930103  RH  056%=      5-min Rain = 0
KSB1 110632Z 24010KT 19/10 A3008 RMK A01 T01920104  RH  057%=      5-min Rain = 0
KSB1 110633Z 24009KT 19/10 A3008 RMK A01 T01910104  RH  057%=      5-min Rain = 0
KSB1 110634Z 24011KT 19/10 A3008 RMK A01 T01910103  RH  057%=      5-min Rain = 0
KSB1 110635Z 24010KT 19/10 A3008 RMK A01 T01910103  RH  057%=      5-min Rain = 0
KSB1 110636Z 24009KT 19/10 A3008 RMK A01 T01910103  RH  057%=      5-min Rain = 0
KSB1 110637Z 24008KT 19/10 A3008 RMK A01 T01910103  RH  057%=      5-min Rain = 0
KSB1 110638Z 24008KT 19/10 A3008 RMK A01 T01900104  RH  057%=      5-min Rain = 0
KSB1 110639Z 24009KT 19/10 A3008 RMK A01 T01890104  RH  057%=      5-min Rain = 0
KSB1 110640Z 24009KT 19/10 A3008 RMK A01 T01890104  RH  058%=      5-min Rain = 0
KSB1 110641Z 24009KT 19/11 A3008 RMK A01 T01890105  RH  058%=      5-min Rain = 0
KSB1 110642Z 24009KT 19/11 A3008 RMK A01 T01870105  RH  059%=      5-min Rain = 0
KSB1 110643Z 24010KT 19/11 A3008 RMK A01 T01870105  RH  059%=      5-min Rain = 0
KSB1 110644Z 23010KT 19/11 A3008 RMK A01 T01870105  RH  059%=      5-min Rain = 0
KSB1 110645Z 23010KT 19/11 A3008 RMK A01 T01870106  RH  059%=      5-min Rain = 0
KSB1 110646Z 23009KT 19/11 A3008 RMK A01 T01870105  RH  059%=      5-min Rain = 0
KSB1 110647Z 23009KT 19/11 A3008 RMK A01 T01870106  RH  059%=      5-min Rain = 0
KSB1 110648Z 24009KT 19/11 A3008 RMK A01 T01860106  RH  059%=      5-min Rain = 0
KSB1 110649Z 24010KT 19/11 A3008 RMK A01 T01860106  RH  060%=      5-min Rain = 0
KSB1 110650Z 24010KT 19/11 A3008 RMK A01 T01860105  RH  059%=      5-min Rain = 0
KSB1 110651Z 24009KT 19/11 A3008 RMK A01 T01870105  RH  059%=      5-min Rain = 0
KSB1 110652Z 24010KT 19/11 A3008 RMK A01 T01870105  RH  059%=      5-min Rain = 0
KSB1 110653Z 24009KT 19/11 A3008 RMK A01 T01870106  RH  059%=      5-min Rain = 0
KSB1 110654Z 24010KT 19/11 A3008 RMK A01 T01860106  RH  059%=      5-min Rain = 0
KSB1 110655Z 24009KT 19/11 A3008 RMK A01 T01860106  RH  059%=      5-min Rain = 0
KSB1 110656Z 24009KT 19/11 A3008 RMK A01 T01870106  RH  059%=      5-min Rain = 0
KSB1 110657Z 24009KT 19/11 A3008 RMK A01 T01870106  RH  059%=      5-min Rain = 0
KSB1 110658Z 24010KT 19/11 A3008 RMK A01 T01870106  RH  059%=      5-min Rain = 0
KSB1 110659Z 23009KT 19/11 A3008 RMK A01 T01870106  RH  059%=      5-min Rain = 0
KSB1 110700Z 23009KT 19/11 A3008 RMK A01 T01870106  RH  059%=      5-min Rain = 0
KSB1 110701Z 23008KT 19/11 A3008 RMK A01 T01860106  RH  060%=      5-min Rain = 0
KSB1 110702Z 23009KT 19/11 A3008 RMK A01 T01850106  RH  060%=      5-min Rain = 0
KSB1 110703Z 23009KT 19/11 A3008 RMK A01 T01850106  RH  060%=      5-min Rain = 0
KSB1 110704Z 23008KT 19/11 A3008 RMK A01 T01860107  RH  060%=      5-min Rain = 0
KSB1 110705Z 23009KT 19/11 A3008 RMK A01 T01860107  RH  060%=      5-min Rain = 0
KSB1 110706Z 23010KT 19/11 A3008 RMK A01 T01860107  RH  060%=      5-min Rain = 0
KSB1 110707Z 23009KT 19/11 A3008 RMK A01 T01860107  RH  060%=      5-min Rain = 0
KSB1 110708Z 23009KT 19/11 A3008 RMK A01 T01860107  RH  060%=      5-min Rain = 0
KSB1 110709Z 23010KT 19/11 A3008 RMK A01 T01860108  RH  060%=      5-min Rain = 0
KSB1 110710Z 23010KT 19/11 A3008 RMK A01 T01860108  RH  060%=      5-min Rain = 0
KSB1 110711Z 23009KT 19/11 A3008 RMK A01 T01870108  RH  060%=      5-min Rain = 0
KSB1 110712Z 24011KT 19/11 A3008 RMK A01 T01870108  RH  060%=      5-min Rain = 0
KSB1 110713Z 24010KT 19/11 A3008 RMK A01 T01880108  RH  060%=      5-min Rain = 0
KSB1 110714Z 24012KT 19/11 A3008 RMK A01 T01890108  RH  059%=      5-min Rain = 0
KSB1 110715Z 24010KT 19/11 A3008 RMK A01 T01900108  RH  059%=      5-min Rain = 0
KSB1 110716Z 25010KT 19/11 A3008 RMK A01 T01910109  RH  059%=      5-min Rain = 0
KSB1 110717Z 24011KT 19/11 A3008 RMK A01 T01910108  RH  059%=      5-min Rain = 0
KSB1 110718Z 24011KT 19/11 A3008 RMK A01 T01910108  RH  058%=      5-min Rain = 0
KSB1 110719Z 24010KT 19/11 A3008 RMK A01 T01910108  RH  058%=      5-min Rain = 0
KSB1 110720Z 24012KT 19/11 A3008 RMK A01 T01910107  RH  058%=      5-min Rain = 0
KSB1 110721Z 24012KT 19/11 A3008 RMK A01 T01920107  RH  058%=      5-min Rain = 0
KSB1 110722Z 24012KT 19/11 A3008 RMK A01 T01910106  RH  058%=      5-min Rain = 0
KSB1 110723Z 24012KT 19/11 A3008 RMK A01 T01920106  RH  058%=      5-min Rain = 0
KSB1 110724Z 24011KT 19/11 A3008 RMK A01 T01910106  RH  058%=      5-min Rain = 0
KSB1 110725Z 24011KT 19/11 A3008 RMK A01 T01910106  RH  057%=      5-min Rain = 0
KSB1 110726Z 24012KT 19/11 A3008 RMK A01 T01920106  RH  057%=      5-min Rain = 0
KSB1 110727Z 24012KT 19/11 A3008 RMK A01 T01930106  RH  057%=      5-min Rain = 0
KSB1 110728Z 24011KT 19/11 A3008 RMK A01 T01930106  RH  057%=      5-min Rain = 0
KSB1 110729Z 24012KT 19/11 A3008 RMK A01 T01920106  RH  058%=      5-min Rain = 0
KSB1 110730Z 25009KT 19/11 A3008 RMK A01 T01910107  RH  058%=      5-min Rain = 0
KSB1 110731Z 26012KT 19/11 A3008 RMK A01 T01910107  RH  058%=      5-min Rain = 0
KSB1 110732Z 25010KT 19/11 A3008 RMK A01 T01910107  RH  058%=      5-min Rain = 0
KSB1 110733Z 26010KT 19/11 A3008 RMK A01 T01920107  RH  058%=      5-min Rain = 0
KSB1 110734Z 26012KT 19/11 A3008 RMK A01 T01920107  RH  058%=      5-min Rain = 0
KSB1 110735Z 25012KT 19/11 A3008 RMK A01 T01910107  RH  058%=      5-min Rain = 0
KSB1 110736Z 25016KT 19/11 A3008 RMK A01 T01910106  RH  058%=      5-min Rain = 0
KSB1 110737Z 25015KT 19/11 A3008 RMK A01 T01910105  RH  057%=      5-min Rain = 0
KSB1 110738Z 26014KT 19/10 A3008 RMK A01 T01910104  RH  057%=      5-min Rain = 0
KSB1 110739Z 25012KT 19/10 A3008 RMK A01 T01910104  RH  057%=      5-min Rain = 0
KSB1 110740Z 26014KT 19/10 A3008 RMK A01 T01900104  RH  057%=      5-min Rain = 0
KSB1 110741Z 24011G16KT 19/10 A3008 RMK A01 T01900102  RH  057%=      5-min Rain = 0
KSB1 110742Z 24010KT 19/11 A3009 RMK A01 T01900105  RH  058%=      5-min Rain = 0
KSB1 110743Z 25011KT 19/11 A3009 RMK A01 T01890105  RH  058%=      5-min Rain = 0
KSB1 110744Z 24010KT 19/10 A3009 RMK A01 T01880104  RH  058%=      5-min Rain = 0
KSB1 110745Z 26012KT 19/10 A3009 RMK A01 T01880103  RH  058%=      5-min Rain = 0
KSB1 110746Z 25013G18KT 19/10 A3009 RMK A01 T01890100  RH  056%=      5-min Rain = 0
KSB1 110747Z 25014KT 19/10 A3009 RMK A01 T01900098  RH  055%=      5-min Rain = 0
KSB1 110748Z 26012KT 19/10 A3009 RMK A01 T01910096  RH  054%=      5-min Rain = 0
KSB1 110749Z 25013KT 19/10 A3009 RMK A01 T01920097  RH  054%=      5-min Rain = 0
KSB1 110750Z 25015KT 19/10 A3009 RMK A01 T01920096  RH  054%=      5-min Rain = 0
KSB1 110751Z 25015KT 19/10 A3009 RMK A01 T01920095  RH  053%=      5-min Rain = 0
KSB1 110752Z 26015KT 19/10 A3009 RMK A01 T01930095  RH  053%=      5-min Rain = 0
KSB1 110753Z 26013KT 19/10 A3009 RMK A01 T01930095  RH  053%=      5-min Rain = 0
KSB1 110754Z 25014KT 19/10 A3009 RMK A01 T01930095  RH  053%=      5-min Rain = 0
KSB1 110755Z 26012KT 19/09 A3009 RMK A01 T01930094  RH  053%=      5-min Rain = 0
KSB1 110756Z 25012KT 19/09 A3009 RMK A01 T01930094  RH  053%=      5-min Rain = 0
KSB1 110757Z 26011KT 19/09 A3009 RMK A01 T01920094  RH  053%=      5-min Rain = 0
KSB1 110758Z 26013KT 19/09 A3009 RMK A01 T01920094  RH  053%=      5-min Rain = 0
KSB1 110759Z 26013KT 19/09 A3009 RMK A01 T01920094  RH  053%=      5-min Rain = 0
KSB1 110800Z 25010KT 19/09 A3009 RMK A01 T01920094  RH  053%=      5-min Rain = 0
KSB1 110801Z 25010KT 19/10 A3009 RMK A01 T01920095  RH  053%=      5-min Rain = 0
KSB1 110802Z 25012KT 19/10 A3009 RMK A01 T01910095  RH  054%=      5-min Rain = 0
KSB1 110803Z 25010KT 19/10 A3009 RMK A01 T01900096  RH  054%=      5-min Rain = 0
KSB1 110804Z 25009KT 19/10 A3009 RMK A01 T01900097  RH  055%=      5-min Rain = 0
KSB1 110805Z 24011KT 19/10 A3009 RMK A01 T01880097  RH  055%=      5-min Rain = 0
KSB1 110806Z 24011KT 19/10 A3009 RMK A01 T01880097  RH  056%=      5-min Rain = 0
KSB1 110807Z 25010KT 19/10 A3009 RMK A01 T01870098  RH  056%=      5-min Rain = 0
KSB1 110808Z 24012KT 19/10 A3009 RMK A01 T01870098  RH  056%=      5-min Rain = 0
KSB1 110809Z 24014KT 19/10 A3009 RMK A01 T01870098  RH  056%=      5-min Rain = 0
KSB1 110810Z 23011KT 19/10 A3009 RMK A01 T01870099  RH  057%=      5-min Rain = 0
KSB1 110811Z 24012KT 19/10 A3009 RMK A01 T01860100  RH  057%=      5-min Rain = 0
KSB1 110812Z 24012KT 19/10 A3009 RMK A01 T01850100  RH  058%=      5-min Rain = 0
KSB1 110813Z 23011KT 18/10 A301 RMK A01 T01840101  RH  058%=      5-min Rain = 0
KSB1 110814Z 23011KT 18/10 A301 RMK A01 T01830104  RH  060%=      5-min Rain = 0
KSB1 110815Z 23011KT 18/10 A301 RMK A01 T01810104  RH  061%=      5-min Rain = 0
KSB1 110816Z 23011KT 18/10 A301 RMK A01 T01810104  RH  061%=      5-min Rain = 0
KSB1 110817Z 24010KT 18/10 A301 RMK A01 T01800104  RH  061%=      5-min Rain = 0
KSB1 110818Z 24011KT 18/11 A301 RMK A01 T01800105  RH  062%=      5-min Rain = 0
KSB1 110819Z 24010KT 18/11 A301 RMK A01 T01790106  RH  062%=      5-min Rain = 0
KSB1 110820Z 23009KT 18/11 A301 RMK A01 T01780107  RH  063%=      5-min Rain = 0
KSB1 110821Z 24009KT 18/11 A301 RMK A01 T01770108  RH  064%=      5-min Rain = 0
KSB1 110822Z 24008KT 18/11 A3009 RMK A01 T01760108  RH  064%=      5-min Rain = 0
KSB1 110823Z 24008KT 18/11 A3009 RMK A01 T01750108  RH  065%=      5-min Rain = 0
KSB1 110824Z 24008KT 18/11 A3009 RMK A01 T01750108  RH  065%=      5-min Rain = 0
KSB1 110825Z 24008KT 17/11 A3009 RMK A01 T01740106  RH  064%=      5-min Rain = 0
KSB1 110826Z 24007KT 17/11 A3009 RMK A01 T01740107  RH  065%=      5-min Rain = 0
KSB1 110827Z 24007KT 17/11 A3009 RMK A01 T01740108  RH  065%=      5-min Rain = 0
KSB1 110828Z 24006KT 17/11 A3009 RMK A01 T01730108  RH  065%=      5-min Rain = 0
KSB1 110829Z 24006KT 17/11 A3009 RMK A01 T01730108  RH  066%=      5-min Rain = 0
KSB1 110830Z 26004KT 17/11 A3009 RMK A01 T01720108  RH  066%=      5-min Rain = 0
KSB1 110831Z 28004KT 17/11 A3009 RMK A01 T01720109  RH  066%=      5-min Rain = 0
KSB1 110832Z 28004KT 17/11 A3009 RMK A01 T01720108  RH  066%=      5-min Rain = 0
KSB1 110833Z 27005KT 17/11 A3009 RMK A01 T01720108  RH  066%=      5-min Rain = 0
KSB1 110834Z 27003KT 17/11 A3009 RMK A01 T01720106  RH  065%=      5-min Rain = 0
KSB1 110835Z 27003KT 17/11 A3009 RMK A01 T01720108  RH  066%=      5-min Rain = 0
KSB1 110836Z 26003KT 17/11 A3009 RMK A01 T01730109  RH  066%=      5-min Rain = 0
KSB1 110837Z 26003KT 17/11 A3009 RMK A01 T01720108  RH  066%=      5-min Rain = 0
KSB1 110838Z 26004KT 17/11 A3009 RMK A01 T01720107  RH  065%=      5-min Rain = 0
KSB1 110839Z 26003KT 17/11 A3009 RMK A01 T01710106  RH  065%=      5-min Rain = 0
KSB1 110840Z 25004KT 17/11 A3009 RMK A01 T01710105  RH  065%=      5-min Rain = 0
KSB1 110841Z 25004KT 17/11 A3009 RMK A01 T01710105  RH  065%=      5-min Rain = 0
KSB1 110842Z 24005KT 17/11 A3009 RMK A01 T01710106  RH  066%=      5-min Rain = 0
KSB1 110843Z 25007KT 17/10 A3009 RMK A01 T01710100  RH  063%=      5-min Rain = 0
KSB1 110844Z 23005KT 17/10 A3009 RMK A01 T01740102  RH  062%=      5-min Rain = 0
KSB1 110845Z 23004KT 17/10 A3009 RMK A01 T01730103  RH  063%=      5-min Rain = 0
KSB1 110846Z 23004KT 17/10 A3009 RMK A01 T01720103  RH  064%=      5-min Rain = 0
KSB1 110847Z 23005KT 17/10 A3009 RMK A01 T01710104  RH  064%=      5-min Rain = 0
KSB1 110848Z 24003KT 17/10 A3009 RMK A01 T01710103  RH  064%=      5-min Rain = 0
KSB1 110849Z 25004KT 17/10 A3008 RMK A01 T01700104  RH  065%=      5-min Rain = 0
KSB1 110850Z 26003KT 17/10 A3008 RMK A01 T01700101  RH  063%=      5-min Rain = 0
KSB1 110851Z 26002KT 17/10 A3008 RMK A01 T01710101  RH  063%=      5-min Rain = 0
KSB1 110852Z 28002KT 17/10 A3008 RMK A01 T01720101  RH  063%=      5-min Rain = 0
KSB1 110853Z 27002KT 17/10 A3008 RMK A01 T01720101  RH  063%=      5-min Rain = 0
KSB1 110854Z 29001KT 17/10 A3008 RMK A01 T01720100  RH  063%=      5-min Rain = 0
KSB1 110855Z 29003KT 17/10 A3008 RMK A01 T01720100  RH  062%=      5-min Rain = 0
KSB1 110856Z 29002KT 17/10 A3008 RMK A01 T01720099  RH  062%=      5-min Rain = 0
KSB1 110857Z 30002KT 17/10 A3008 RMK A01 T01720097  RH  062%=      5-min Rain = 0
KSB1 110858Z 29003KT 17/10 A3008 RMK A01 T01720097  RH  061%=      5-min Rain = 0
KSB1 110859Z 29003KT 17/10 A3008 RMK A01 T01730096  RH  061%=      5-min Rain = 0
KSB1 110900Z 30004KT 17/10 A3008 RMK A01 T01730097  RH  061%=      5-min Rain = 0
KSB1 110901Z 29005KT 17/10 A3008 RMK A01 T01740095  RH  060%=      5-min Rain = 0
KSB1 110902Z 30006KT 18/10 A3008 RMK A01 T01750095  RH  059%=      5-min Rain = 0
KSB1 110903Z 31006KT 18/09 A3008 RMK A01 T01770094  RH  058%=      5-min Rain = 0
KSB1 110904Z 31006KT 18/09 A3007 RMK A01 T01790092  RH  057%=      5-min Rain = 0
KSB1 110905Z 31005KT 18/09 A3007 RMK A01 T01800093  RH  056%=      5-min Rain = 0
KSB1 110906Z 31006KT 18/09 A3007 RMK A01 T01810092  RH  056%=      5-min Rain = 0
KSB1 110907Z 31008KT 18/09 A3008 RMK A01 T01810091  RH  056%=      5-min Rain = 0
KSB1 110908Z 34006KT 18/09 A3007 RMK A01 T01830090  RH  055%=      5-min Rain = 0
KSB1 110909Z 36004KT 18/10 A3008 RMK A01 T01830095  RH  057%=      5-min Rain = 0
KSB1 110910Z 35004KT 18/10 A3008 RMK A01 T01810097  RH  058%=      5-min Rain = 0
KSB1 110911Z 35004KT 18/10 A3008 RMK A01 T01780098  RH  059%=      5-min Rain = 0
KSB1 110912Z 34003KT 18/10 A3008 RMK A01 T01760097  RH  060%=      5-min Rain = 0
KSB1 110913Z 34004KT 17/10 A3007 RMK A01 T01740097  RH  060%=      5-min Rain = 0
KSB1 110914Z 35004KT 17/10 A3007 RMK A01 T01730098  RH  061%=      5-min Rain = 0
KSB1 110915Z 33004KT 17/10 A3007 RMK A01 T01720097  RH  061%=      5-min Rain = 0
KSB1 110916Z 34004KT 17/10 A3007 RMK A01 T01720096  RH  061%=      5-min Rain = 0
KSB1 110917Z 34005KT 17/10 A3007 RMK A01 T01720097  RH  061%=      5-min Rain = 0
KSB1 110918Z 34004KT 17/10 A3007 RMK A01 T01720097  RH  061%=      5-min Rain = 0
KSB1 110919Z 33004KT 17/10 A3007 RMK A01 T01720097  RH  061%=      5-min Rain = 0
KSB1 110920Z 30005KT 17/10 A3007 RMK A01 T01710096  RH  061%=      5-min Rain = 0
KSB1 110921Z 30006KT 17/09 A3007 RMK A01 T01720093  RH  059%=      5-min Rain = 0
KSB1 110922Z 30004KT 18/09 A3007 RMK A01 T01750093  RH  058%=      5-min Rain = 0
KSB1 110923Z 30004KT 18/09 A3007 RMK A01 T01760094  RH  058%=      5-min Rain = 0
KSB1 110924Z 30003KT 18/09 A3007 RMK A01 T01770093  RH  058%=      5-min Rain = 0
KSB1 110925Z 29004KT 18/09 A3007 RMK A01 T01770093  RH  058%=      5-min Rain = 0
KSB1 110926Z 29004KT 18/09 A3007 RMK A01 T01760092  RH  058%=      5-min Rain = 0
KSB1 110927Z 30006KT 18/09 A3007 RMK A01 T01770091  RH  057%=      5-min Rain = 0
KSB1 110928Z 30007KT 18/09 A3007 RMK A01 T01780091  RH  057%=      5-min Rain = 0
KSB1 110929Z 30007KT 18/09 A3007 RMK A01 T01790091  RH  056%=      5-min Rain = 0
KSB1 110930Z 30007KT 18/09 A3007 RMK A01 T01800090  RH  056%=      5-min Rain = 0
KSB1 110931Z 30007KT 18/09 A3007 RMK A01 T01800089  RH  055%=      5-min Rain = 0
KSB1 110932Z 30009KT 18/09 A3007 RMK A01 T01820089  RH  055%=      5-min Rain = 0
KSB1 110933Z 30008KT 18/09 A3007 RMK A01 T01830088  RH  054%=      5-min Rain = 0
KSB1 110934Z 30008KT 18/09 A3007 RMK A01 T01840088  RH  053%=      5-min Rain = 0
KSB1 110935Z 30008KT 19/09 A3007 RMK A01 T01860088  RH  053%=      5-min Rain = 0
KSB1 110936Z 30008KT 19/09 A3007 RMK A01 T01860087  RH  053%=      5-min Rain = 0
KSB1 110937Z 30007KT 19/09 A3007 RMK A01 T01860087  RH  053%=      5-min Rain = 0
KSB1 110938Z 30008KT 19/09 A3007 RMK A01 T01860087  RH  053%=      5-min Rain = 0
KSB1 110939Z 31008KT 19/09 A3007 RMK A01 T01860087  RH  052%=      5-min Rain = 0
KSB1 110940Z 31007KT 19/09 A3007 RMK A01 T01860086  RH  052%=      5-min Rain = 0
KSB1 110941Z 31008KT 19/09 A3007 RMK A01 T01870086  RH  052%=      5-min Rain = 0
KSB1 110942Z 30007KT 19/09 A3007 RMK A01 T01870087  RH  052%=      5-min Rain = 0
KSB1 110943Z 30007KT 19/09 A3007 RMK A01 T01860087  RH  052%=      5-min Rain = 0
KSB1 110944Z 30008KT 19/09 A3007 RMK A01 T01860088  RH  053%=      5-min Rain = 0
KSB1 110945Z 30007KT 19/09 A3007 RMK A01 T01850088  RH  053%=      5-min Rain = 0
KSB1 110946Z 31006KT 19/09 A3007 RMK A01 T01850087  RH  053%=      5-min Rain = 0
KSB1 110947Z 30006KT 19/09 A3007 RMK A01 T01850088  RH  053%=      5-min Rain = 0
KSB1 110948Z 29007KT 19/09 A3007 RMK A01 T01850088  RH  053%=      5-min Rain = 0
KSB1 110949Z 30006KT 19/09 A3007 RMK A01 T01850088  RH  053%=      5-min Rain = 0
KSB1 110950Z 30007KT 19/09 A3007 RMK A01 T01850087  RH  053%=      5-min Rain = 0
KSB1 110951Z 30006KT 19/09 A3007 RMK A01 T01850087  RH  053%=      5-min Rain = 0
KSB1 110952Z 30005KT 19/09 A3007 RMK A01 T01850087  RH  053%=      5-min Rain = 0
KSB1 110953Z 30005KT 19/09 A3007 RMK A01 T01850088  RH  053%=      5-min Rain = 0
KSB1 110954Z 28004KT 19/09 A3007 RMK A01 T01850088  RH  053%=      5-min Rain = 0
KSB1 110955Z 29005KT 18/09 A3007 RMK A01 T01840088  RH  053%=      5-min Rain = 0
KSB1 110956Z 29005KT 18/09 A3007 RMK A01 T01830088  RH  054%=      5-min Rain = 0
KSB1 110957Z 25003KT 18/09 A3007 RMK A01 T01820089  RH  054%=      5-min Rain = 0
KSB1 110958Z 22003KT 18/09 A3007 RMK A01 T01780091  RH  056%=      5-min Rain = 0
KSB1 110959Z 22003KT 17/09 A3007 RMK A01 T01740091  RH  058%=      5-min Rain = 0
KSB1 111000Z 22004KT 17/09 A3007 RMK A01 T01710091  RH  059%=      5-min Rain = 0
KSB1 111001Z 23003KT 17/09 A3007 RMK A01 T01690091  RH  060%=      5-min Rain = 0
KSB1 111002Z 24003KT 17/09 A3007 RMK A01 T01670091  RH  061%=      5-min Rain = 0
KSB1 111003Z 25003KT 17/09 A3007 RMK A01 T01670091  RH  061%=      5-min Rain = 0
KSB1 111004Z 23003KT 17/09 A3007 RMK A01 T01660092  RH  061%=      5-min Rain = 0
KSB1 111005Z 21004KT 17/09 A3007 RMK A01 T01650093  RH  062%=      5-min Rain = 0
KSB1 111006Z 22005KT 16/09 A3007 RMK A01 T01630092  RH  063%=      5-min Rain = 0
KSB1 111007Z 21005KT 16/09 A3007 RMK A01 T01630092  RH  063%=      5-min Rain = 0
KSB1 111008Z 20006KT 16/09 A3007 RMK A01 T01630092  RH  063%=      5-min Rain = 0
KSB1 111009Z 19006KT 16/09 A3007 RMK A01 T01640092  RH  063%=      5-min Rain = 0
KSB1 111010Z 19005KT 16/09 A3007 RMK A01 T01640092  RH  062%=      5-min Rain = 0
KSB1 111011Z 17005KT 16/09 A3007 RMK A01 T01640093  RH  063%=      5-min Rain = 0
KSB1 111012Z 17006KT 17/09 A3007 RMK A01 T01650094  RH  063%=      5-min Rain = 0
KSB1 111013Z 17004KT 17/10 A3007 RMK A01 T01650096  RH  063%=      5-min Rain = 0
KSB1 111014Z 17004KT 17/10 A3007 RMK A01 T01650097  RH  064%=      5-min Rain = 0
KSB1 111015Z 18003KT 17/10 A3007 RMK A01 T01650097  RH  064%=      5-min Rain = 0
KSB1 111016Z 17003KT 16/10 A3007 RMK A01 T01640097  RH  065%=      5-min Rain = 0
KSB1 111017Z 16003KT 16/10 A3007 RMK A01 T01630097  RH  065%=      5-min Rain = 0
KSB1 111018Z 16002KT 16/10 A3007 RMK A01 T01630098  RH  065%=      5-min Rain = 0
KSB1 111019Z 16002KT 16/10 A3007 RMK A01 T01630098  RH  065%=      5-min Rain = 0
KSB1 111020Z 17002KT 16/10 A3007 RMK A01 T01630098  RH  065%=      5-min Rain = 0
KSB1 111021Z 17001KT 16/10 A3007 RMK A01 T01620098  RH  066%=      5-min Rain = 0
KSB1 111022Z 20001KT 16/10 A3007 RMK A01 T01620098  RH  066%=      5-min Rain = 0
KSB1 111023Z 19000KT 16/10 A3007 RMK A01 T01620096  RH  065%=      5-min Rain = 0
KSB1 111024Z 19000KT 16/09 A3007 RMK A01 T01610093  RH  064%=      5-min Rain = 0
KSB1 111025Z 16001KT 16/09 A3007 RMK A01 T01620091  RH  063%=      5-min Rain = 0
KSB1 111026Z 21002KT 17/09 A3007 RMK A01 T01650092  RH  062%=      5-min Rain = 0
KSB1 111027Z 22002KT 17/09 A3007 RMK A01 T01670093  RH  062%=      5-min Rain = 0
KSB1 111028Z 21003KT 17/09 A3007 RMK A01 T01670094  RH  062%=      5-min Rain = 0
KSB1 111029Z 20003KT 17/09 A3007 RMK A01 T01670093  RH  062%=      5-min Rain = 0
KSB1 111030Z 21003KT 17/09 A3007 RMK A01 T01660093  RH  062%=      5-min Rain = 0
KSB1 111031Z 21002KT 17/09 A3007 RMK A01 T01670092  RH  061%=      5-min Rain = 0
KSB1 111032Z 20001KT 17/09 A3007 RMK A01 T01680092  RH  061%=      5-min Rain = 0
KSB1 111033Z 18001KT 17/09 A3007 RMK A01 T01690092  RH  061%=      5-min Rain = 0
KSB1 111034Z 26001KT 17/09 A3007 RMK A01 T01680091  RH  060%=      5-min Rain = 0
KSB1 111035Z 28001KT 17/09 A3007 RMK A01 T01690090  RH  059%=      5-min Rain = 0
KSB1 111036Z 27003KT 17/09 A3007 RMK A01 T01710090  RH  059%=      5-min Rain = 0
KSB1 111037Z 27002KT 17/09 A3007 RMK A01 T01720089  RH  058%=      5-min Rain = 0
KSB1 111038Z 26002KT 17/09 A3007 RMK A01 T01730091  RH  058%=      5-min Rain = 0
KSB1 111039Z 24003KT 17/09 A3007 RMK A01 T01730090  RH  058%=      5-min Rain = 0
KSB1 111040Z 24003KT 17/09 A3007 RMK A01 T01730090  RH  058%=      5-min Rain = 0
KSB1 111041Z 24003KT 17/09 A3007 RMK A01 T01730090  RH  058%=      5-min Rain = 0
KSB1 111042Z 24002KT 17/09 A3007 RMK A01 T01710091  RH  059%=      5-min Rain = 0
KSB1 111043Z 23003KT 17/09 A3007 RMK A01 T01690090  RH  060%=      5-min Rain = 0
KSB1 111044Z 23003KT 17/09 A3007 RMK A01 T01690090  RH  060%=      5-min Rain = 0
KSB1 111045Z 24003KT 17/09 A3007 RMK A01 T01700088  RH  059%=      5-min Rain = 0
KSB1 111046Z 25004KT 17/09 A3007 RMK A01 T01710090  RH  059%=      5-min Rain = 0
KSB1 111047Z 25004KT 17/09 A3007 RMK A01 T01700090  RH  059%=      5-min Rain = 0
KSB1 111048Z 24003KT 17/09 A3007 RMK A01 T01690089  RH  059%=      5-min Rain = 0
KSB1 111049Z 24003KT 17/09 A3007 RMK A01 T01680089  RH  060%=      5-min Rain = 0
KSB1 111050Z 24003KT 17/09 A3007 RMK A01 T01670089  RH  060%=      5-min Rain = 0
KSB1 111051Z 23004KT 17/09 A3007 RMK A01 T01670088  RH  060%=      5-min Rain = 0
KSB1 111052Z 24004KT 17/09 A3007 RMK A01 T01670088  RH  060%=      5-min Rain = 0
KSB1 111053Z 24004KT 17/09 A3007 RMK A01 T01650088  RH  061%=      5-min Rain = 0
KSB1 111054Z 24005KT 16/09 A3007 RMK A01 T01620088  RH  062%=      5-min Rain = 0
KSB1 111055Z 24005KT 16/09 A3007 RMK A01 T01590088  RH  063%=      5-min Rain = 0
KSB1 111056Z 24005KT 16/09 A3007 RMK A01 T01570088  RH  063%=      5-min Rain = 0
KSB1 111057Z 24005KT 16/09 A3007 RMK A01 T01560088  RH  064%=      5-min Rain = 0
KSB1 111058Z 24006KT 16/09 A3007 RMK A01 T01560088  RH  064%=      5-min Rain = 0
KSB1 111059Z 23006KT 16/09 A3007 RMK A01 T01550088  RH  064%=      5-min Rain = 0
KSB1 111100Z 23006KT 15/09 A3007 RMK A01 T01540088  RH  065%=      5-min Rain = 0
KSB1 111101Z 23006KT 15/09 A3007 RMK A01 T01520088  RH  066%=      5-min Rain = 0
KSB1 111102Z 23006KT 15/09 A3007 RMK A01 T01510088  RH  066%=      5-min Rain = 0
KSB1 111103Z 23006KT 15/09 A3007 RMK A01 T01500088  RH  066%=      5-min Rain = 0
KSB1 111104Z 24006KT 15/09 A3007 RMK A01 T01500088  RH  067%=      5-min Rain = 0
KSB1 111105Z 24005KT 15/09 A3007 RMK A01 T01490088  RH  067%=      5-min Rain = 0
KSB1 111106Z 23005KT 15/09 A3007 RMK A01 T01490088  RH  067%=      5-min Rain = 0
KSB1 111107Z 23006KT 15/09 A3007 RMK A01 T01500088  RH  066%=      5-min Rain = 0
KSB1 111108Z 24006KT 15/09 A3007 RMK A01 T01500088  RH  066%=      5-min Rain = 0
KSB1 111109Z 23007KT 15/09 A3007 RMK A01 T01510088  RH  066%=      5-min Rain = 0
KSB1 111110Z 23006KT 15/09 A3007 RMK A01 T01510088  RH  066%=      5-min Rain = 0
KSB1 111111Z 24005KT 15/09 A3007 RMK A01 T01510088  RH  066%=      5-min Rain = 0
KSB1 111112Z 24005KT 15/09 A3007 RMK A01 T01510088  RH  066%=      5-min Rain = 0
KSB1 111113Z 24005KT 15/09 A3007 RMK A01 T01500088  RH  066%=      5-min Rain = 0
KSB1 111114Z 24005KT 15/09 A3007 RMK A01 T01500088  RH  066%=      5-min Rain = 0
KSB1 111115Z 25005KT 15/09 A3008 RMK A01 T01500088  RH  066%=      5-min Rain = 0
KSB1 111116Z 26004KT 15/09 A3008 RMK A01 T01500088  RH  066%=      5-min Rain = 0
KSB1 111117Z 26004KT 15/09 A3008 RMK A01 T01500088  RH  066%=      5-min Rain = 0
KSB1 111118Z 26004KT 15/09 A3008 RMK A01 T01510088  RH  066%=      5-min Rain = 0
KSB1 111119Z 27004KT 15/09 A3008 RMK A01 T01520088  RH  066%=      5-min Rain = 0
KSB1 111120Z 28004KT 15/09 A3008 RMK A01 T01540089  RH  065%=      5-min Rain = 0
KSB1 111121Z 27004KT 16/09 A3008 RMK A01 T01550088  RH  064%=      5-min Rain = 0
KSB1 111122Z 29004KT 16/09 A3008 RMK A01 T01580088  RH  063%=      5-min Rain = 0
KSB1 111123Z 26006KT 16/09 A3008 RMK A01 T01600088  RH  062%=      5-min Rain = 0
KSB1 111124Z 28006KT 16/09 A3008 RMK A01 T01630089  RH  061%=      5-min Rain = 0
KSB1 111125Z 28004KT 17/09 A3008 RMK A01 T01650089  RH  061%=      5-min Rain = 0
KSB1 111126Z 29005KT 17/09 A3008 RMK A01 T01650089  RH  061%=      5-min Rain = 0
KSB1 111127Z 29005KT 17/09 A3008 RMK A01 T01650089  RH  061%=      5-min Rain = 0
KSB1 111128Z 29005KT 16/09 A3008 RMK A01 T01640089  RH  061%=      5-min Rain = 0
KSB1 111129Z 31005KT 16/09 A3008 RMK A01 T01640089  RH  061%=      5-min Rain = 0
KSB1 111130Z 30005KT 16/09 A3008 RMK A01 T01640089  RH  061%=      5-min Rain = 0
KSB1 111131Z 30006KT 16/09 A3008 RMK A01 T01640090  RH  061%=      5-min Rain = 0
KSB1 111132Z 30006KT 17/09 A3008 RMK A01 T01650089  RH  061%=      5-min Rain = 0
KSB1 111133Z 30006KT 17/09 A3007 RMK A01 T01650090  RH  061%=      5-min Rain = 0
KSB1 111134Z 30005KT 17/09 A3007 RMK A01 T01660089  RH  060%=      5-min Rain = 0
KSB1 111135Z 30005KT 17/09 A3007 RMK A01 T01670090  RH  060%=      5-min Rain = 0
KSB1 111136Z 30005KT 17/09 A3007 RMK A01 T01670089  RH  060%=      5-min Rain = 0
KSB1 111137Z 30005KT 17/09 A3007 RMK A01 T01680090  RH  060%=      5-min Rain = 0
KSB1 111138Z 30006KT 17/09 A3007 RMK A01 T01680089  RH  059%=      5-min Rain = 0
KSB1 111139Z 29004KT 17/09 A3008 RMK A01 T01700089  RH  059%=      5-min Rain = 0
KSB1 111140Z 30005KT 17/09 A3008 RMK A01 T01710089  RH  058%=      5-min Rain = 0
KSB1 111141Z 30003KT 17/09 A3008 RMK A01 T01720088  RH  058%=      5-min Rain = 0
KSB1 111142Z 31003KT 17/09 A3008 RMK A01 T01730088  RH  057%=      5-min Rain = 0
KSB1 111143Z 31003KT 17/09 A3008 RMK A01 T01730088  RH  057%=      5-min Rain = 0
KSB1 111144Z 29004KT 17/09 A3008 RMK A01 T01730088  RH  057%=      5-min Rain = 0
KSB1 111145Z 30003KT 17/09 A3008 RMK A01 T01730089  RH  058%=      5-min Rain = 0
KSB1 111146Z 28003KT 17/09 A3008 RMK A01 T01730089  RH  058%=      5-min Rain = 0
KSB1 111147Z 28002KT 17/09 A3008 RMK A01 T01730089  RH  058%=      5-min Rain = 0
KSB1 111148Z 30002KT 17/09 A3008 RMK A01 T01730088  RH  057%=      5-min Rain = 0
KSB1 111149Z 26003KT 17/09 A3008 RMK A01 T01740089  RH  057%=      5-min Rain = 0
KSB1 111150Z 25003KT 17/09 A3008 RMK A01 T01740089  RH  057%=      5-min Rain = 0
KSB1 111151Z 24002KT 17/09 A3007 RMK A01 T01720089  RH  058%=      5-min Rain = 0
KSB1 111152Z 28001KT 17/09 A3007 RMK A01 T01720089  RH  058%=      5-min Rain = 0
KSB1 111153Z 22001KT 17/09 A3007 RMK A01 T01730089  RH  058%=      5-min Rain = 0
KSB1 111154Z 18001KT 17/09 A3008 RMK A01 T01730090  RH  058%=      5-min Rain = 0
KSB1 111155Z 20001KT 17/09 A3008 RMK A01 T01730090  RH  058%=      5-min Rain = 0
KSB1 111156Z 22002KT 17/09 A3008 RMK A01 T01720090  RH  058%=      5-min Rain = 0
KSB1 111157Z 22002KT 17/09 A3008 RMK A01 T01710090  RH  059%=      5-min Rain = 0
KSB1 111158Z 22002KT 17/09 A3008 RMK A01 T01700090  RH  059%=      5-min Rain = 0
KSB1 111159Z 22001KT 17/09 A3008 RMK A01 T01690090  RH  059%=      5-min Rain = 0
KSB1 111200Z 22000KT 17/09 A3008 RMK A01 T01690090  RH  059%=      5-min Rain = 0
KSB1 111201Z 12000KT 17/09 A3008 RMK A01 T01690090  RH  059%=      5-min Rain = 0
KSB1 111202Z 15001KT 17/09 A3008 RMK A01 T01700090  RH  060%=      5-min Rain = 0
KSB1 111203Z 36001KT 17/09 A3008 RMK A01 T01700091  RH  060%=      5-min Rain = 0
KSB1 111204Z 33001KT 17/09 A3008 RMK A01 T01700090  RH  059%=      5-min Rain = 0
KSB1 111205Z 27002KT 17/09 A3008 RMK A01 T01710090  RH  059%=      5-min Rain = 0
KSB1 111206Z 27002KT 17/09 A3008 RMK A01 T01730092  RH  059%=      5-min Rain = 0
KSB1 111207Z 28002KT 17/09 A3008 RMK A01 T01740092  RH  058%=      5-min Rain = 0
KSB1 111208Z 29002KT 18/09 A3008 RMK A01 T01750092  RH  058%=      5-min Rain = 0
KSB1 111209Z 28002KT 18/09 A3008 RMK A01 T01750091  RH  058%=      5-min Rain = 0
KSB1 111210Z 27002KT 18/09 A3008 RMK A01 T01750092  RH  058%=      5-min Rain = 0
KSB1 111211Z 24001KT 17/09 A3008 RMK A01 T01730091  RH  058%=      5-min Rain = 0
KSB1 111212Z 23001KT 17/09 A3008 RMK A01 T01710090  RH  059%=      5-min Rain = 0
KSB1 111213Z 22001KT 17/09 A3008 RMK A01 T01690091  RH  060%=      5-min Rain = 0
KSB1 111214Z 19001KT 17/09 A3008 RMK A01 T01690091  RH  060%=      5-min Rain = 0
KSB1 111215Z 18001KT 17/09 A3008 RMK A01 T01690091  RH  060%=      5-min Rain = 0
KSB1 111216Z 21001KT 17/09 A3008 RMK A01 T01690091  RH  060%=      5-min Rain = 0
KSB1 111217Z 23001KT 17/09 A3008 RMK A01 T01690091  RH  060%=      5-min Rain = 0
KSB1 111218Z 25001KT 17/09 A3008 RMK A01 T01700091  RH  060%=      5-min Rain = 0
KSB1 111219Z 28002KT 17/09 A3008 RMK A01 T01710091  RH  060%=      5-min Rain = 0
KSB1 111220Z 30003KT 17/09 A3008 RMK A01 T01710091  RH  059%=      5-min Rain = 0
KSB1 111221Z 32004KT 17/09 A3008 RMK A01 T01710092  RH  060%=      5-min Rain = 0
KSB1 111222Z 33006KT 17/09 A3008 RMK A01 T01710093  RH  060%=      5-min Rain = 0
KSB1 111223Z 34006KT 17/09 A3008 RMK A01 T01710094  RH  060%=      5-min Rain = 0
KSB1 111224Z 34005KT 17/09 A3008 RMK A01 T01700094  RH  061%=      5-min Rain = 0
KSB1 111225Z 33006KT 17/09 A3008 RMK A01 T01680094  RH  062%=      5-min Rain = 0
KSB1 111226Z 32006KT 17/10 A3008 RMK A01 T01670095  RH  062%=      5-min Rain = 0
KSB1 111227Z 31006KT 17/10 A3008 RMK A01 T01660095  RH  063%=      5-min Rain = 0
KSB1 111228Z 30005KT 17/10 A3008 RMK A01 T01660095  RH  063%=      5-min Rain = 0
KSB1 111229Z 30006KT 17/10 A3008 RMK A01 T01670095  RH  062%=      5-min Rain = 0
KSB1 111230Z 30007KT 17/10 A3008 RMK A01 T01670095  RH  062%=      5-min Rain = 0
KSB1 111231Z 30007KT 17/10 A3008 RMK A01 T01670095  RH  062%=      5-min Rain = 0
KSB1 111232Z 30007KT 17/10 A3008 RMK A01 T01690095  RH  062%=      5-min Rain = 0
KSB1 111233Z 31008KT 17/10 A3008 RMK A01 T01690095  RH  062%=      5-min Rain = 0
KSB1 111234Z 32008KT 17/10 A3008 RMK A01 T01700095  RH  061%=      5-min Rain = 0
KSB1 111235Z 32008KT 17/10 A3008 RMK A01 T01710095  RH  061%=      5-min Rain = 0
KSB1 111236Z 32009KT 17/10 A3008 RMK A01 T01710095  RH  061%=      5-min Rain = 0
KSB1 111237Z 31009KT 17/10 A3008 RMK A01 T01710095  RH  061%=      5-min Rain = 0
KSB1 111238Z 31009KT 17/09 A3008 RMK A01 T01710094  RH  061%=      5-min Rain = 0
KSB1 111239Z 31009KT 17/09 A3008 RMK A01 T01710094  RH  061%=      5-min Rain = 0
KSB1 111240Z 32009KT 17/09 A3008 RMK A01 T01720094  RH  060%=      5-min Rain = 0
KSB1 111241Z 31009KT 17/10 A3008 RMK A01 T01730095  RH  060%=      5-min Rain = 0
KSB1 111242Z 31009KT 17/10 A3008 RMK A01 T01730095  RH  060%=      5-min Rain = 0
KSB1 111243Z 31009KT 17/10 A3008 RMK A01 T01730095  RH  060%=      5-min Rain = 0
KSB1 111244Z 31009KT 17/10 A3008 RMK A01 T01730095  RH  060%=      5-min Rain = 0
KSB1 111245Z 31008KT 17/10 A3008 RMK A01 T01730095  RH  060%=      5-min Rain = 0
KSB1 111246Z 31008KT 17/10 A3008 RMK A01 T01720095  RH  060%=      5-min Rain = 0
KSB1 111247Z 31008KT 17/10 A3008 RMK A01 T01720095  RH  060%=      5-min Rain = 0
KSB1 111248Z 31008KT 17/10 A3008 RMK A01 T01720095  RH  061%=      5-min Rain = 0
KSB1 111249Z 31007KT 17/10 A3008 RMK A01 T01710095  RH  061%=      5-min Rain = 0
KSB1 111250Z 31007KT 17/10 A3009 RMK A01 T01710095  RH  061%=      5-min Rain = 0
KSB1 111251Z 30007KT 17/10 A3009 RMK A01 T01710095  RH  061%=      5-min Rain = 0
KSB1 111252Z 30007KT 17/10 A3009 RMK A01 T01700095  RH  061%=      5-min Rain = 0
KSB1 111253Z 30008KT 17/10 A3009 RMK A01 T01710095  RH  061%=      5-min Rain = 0
KSB1 111254Z 30007KT 17/10 A3009 RMK A01 T01710095  RH  061%=      5-min Rain = 0
KSB1 111255Z 30008KT 17/10 A3009 RMK A01 T01710095  RH  061%=      5-min Rain = 0
KSB1 111256Z 30008KT 17/10 A3009 RMK A01 T01710095  RH  061%=      5-min Rain = 0
KSB1 111257Z 30008KT 17/10 A3009 RMK A01 T01710095  RH  061%=      5-min Rain = 0
KSB1 111258Z 30008KT 17/10 A3009 RMK A01 T01720095  RH  060%=      5-min Rain = 0
KSB1 111259Z 30007KT 17/10 A3009 RMK A01 T01730095  RH  060%=      5-min Rain = 0
KSB1 111300Z 30007KT 17/10 A3009 RMK A01 T01730095  RH  060%=      5-min Rain = 0
KSB1 111301Z 31007KT 17/10 A3009 RMK A01 T01730095  RH  060%=      5-min Rain = 0
KSB1 111302Z 31008KT 17/10 A3009 RMK A01 T01730095  RH  060%=      5-min Rain = 0
KSB1 111303Z 30007KT 17/10 A3009 RMK A01 T01730095  RH  060%=      5-min Rain = 0
KSB1 111304Z 30007KT 17/10 A3009 RMK A01 T01730095  RH  060%=      5-min Rain = 0
KSB1 111305Z 30007KT 17/10 A3009 RMK A01 T01720096  RH  061%=      5-min Rain = 0
KSB1 111306Z 30008KT 17/10 A3009 RMK A01 T01720096  RH  061%=      5-min Rain = 0
KSB1 111307Z 30008KT 17/10 A3009 RMK A01 T01720095  RH  061%=      5-min Rain = 0
KSB1 111308Z 30008KT 17/10 A3009 RMK A01 T01720095  RH  060%=      5-min Rain = 0
KSB1 111309Z 29008KT 17/10 A301 RMK A01 T01730095  RH  060%=      5-min Rain = 0
KSB1 111310Z 29009KT 17/10 A301 RMK A01 T01740095  RH  060%=      5-min Rain = 0
KSB1 111311Z 29008KT 17/09 A301 RMK A01 T01740094  RH  059%=      5-min Rain = 0
KSB1 111312Z 29007KT 18/10 A301 RMK A01 T01750095  RH  059%=      5-min Rain = 0
KSB1 111313Z 27006KT 17/10 A301 RMK A01 T01730095  RH  060%=      5-min Rain = 0
KSB1 111314Z 26007KT 17/10 A301 RMK A01 T01680095  RH  062%=      5-min Rain = 0
KSB1 111315Z 27007KT 16/10 A301 RMK A01 T01610095  RH  065%=      5-min Rain = 0
KSB1 111316Z 27007KT 16/10 A301 RMK A01 T01560095  RH  067%=      5-min Rain = 0
KSB1 111317Z 27007KT 15/10 A301 RMK A01 T01530095  RH  068%=      5-min Rain = 0
KSB1 111318Z 26007KT 15/10 A301 RMK A01 T01520095  RH  069%=      5-min Rain = 0
KSB1 111319Z 26007KT 15/10 A301 RMK A01 T01510096  RH  070%=      5-min Rain = 0
KSB1 111320Z 27008KT 15/10 A3011 RMK A01 T01490096  RH  070%=      5-min Rain = 0
KSB1 111321Z 27008KT 15/10 A3011 RMK A01 T01490096  RH  071%=      5-min Rain = 0
KSB1 111322Z 27008KT 15/10 A3011 RMK A01 T01480096  RH  071%=      5-min Rain = 0
KSB1 111323Z 27008KT 15/10 A3011 RMK A01 T01480097  RH  071%=      5-min Rain = 0
KSB1 111324Z 27008KT 15/10 A3011 RMK A01 T01480097  RH  071%=      5-min Rain = 0
KSB1 111325Z 27008KT 15/10 A3011 RMK A01 T01480097  RH  071%=      5-min Rain = 0
KSB1 111326Z 27008KT 15/10 A3011 RMK A01 T01480097  RH  071%=      5-min Rain = 0
KSB1 111327Z 27008KT 15/10 A3011 RMK A01 T01490098  RH  072%=      5-min Rain = 0
KSB1 111328Z 27008KT 15/10 A3011 RMK A01 T01480098  RH  072%=      5-min Rain = 0
KSB1 111329Z 27008KT 15/10 A3011 RMK A01 T01490098  RH  071%=      5-min Rain = 0
KSB1 111330Z 27008KT 15/10 A3011 RMK A01 T01490098  RH  071%=      5-min Rain = 0
KSB1 111331Z 27008KT 15/10 A3011 RMK A01 T01490098  RH  071%=      5-min Rain = 0
KSB1 111332Z 27007KT 15/10 A3011 RMK A01 T01490098  RH  071%=      5-min Rain = 0
KSB1 111333Z 27007KT 15/10 A3011 RMK A01 T01490098  RH  072%=      5-min Rain = 0
KSB1 111334Z 27007KT 15/10 A3011 RMK A01 T01490098  RH  072%=      5-min Rain = 0
KSB1 111335Z 27007KT 15/10 A3011 RMK A01 T01480098  RH  072%=      5-min Rain = 0
KSB1 111336Z 27007KT 15/10 A3011 RMK A01 T01490098  RH  072%=      5-min Rain = 0
KSB1 111337Z 28008KT 15/10 A3011 RMK A01 T01480098  RH  072%=      5-min Rain = 0
KSB1 111338Z 28008KT 15/10 A3011 RMK A01 T01490098  RH  072%=      5-min Rain = 0
KSB1 111339Z 29008KT 15/10 A3011 RMK A01 T01490099  RH  072%=      5-min Rain = 0
KSB1 111340Z 29008KT 15/10 A3011 RMK A01 T01500099  RH  071%=      5-min Rain = 0
KSB1 111341Z 29008KT 15/10 A3011 RMK A01 T01500099  RH  071%=      5-min Rain = 0
KSB1 111342Z 28008KT 15/10 A3011 RMK A01 T01520099  RH  071%=      5-min Rain = 0
KSB1 111343Z 29007KT 15/10 A3011 RMK A01 T01540099  RH  070%=      5-min Rain = 0
KSB1 111344Z 29007KT 16/10 A3012 RMK A01 T01560099  RH  069%=      5-min Rain = 0
KSB1 111345Z 29007KT 16/10 A3012 RMK A01 T01580099  RH  068%=      5-min Rain = 0
KSB1 111346Z 29007KT 16/10 A3012 RMK A01 T01590099  RH  067%=      5-min Rain = 0
KSB1 111347Z 29007KT 16/10 A3012 RMK A01 T01610099  RH  067%=      5-min Rain = 0
KSB1 111348Z 29006KT 16/10 A3012 RMK A01 T01610098  RH  066%=      5-min Rain = 0
KSB1 111349Z 28007KT 16/10 A3012 RMK A01 T01610098  RH  066%=      5-min Rain = 0
KSB1 111350Z 28007KT 16/10 A3012 RMK A01 T01620098  RH  066%=      5-min Rain = 0
KSB1 111351Z 28007KT 16/10 A3012 RMK A01 T01620098  RH  066%=      5-min Rain = 0
KSB1 111352Z 28007KT 16/10 A3012 RMK A01 T01620099  RH  066%=      5-min Rain = 0
KSB1 111353Z 28006KT 16/10 A3012 RMK A01 T01620099  RH  066%=      5-min Rain = 0
KSB1 111354Z 29006KT 16/10 A3012 RMK A01 T01610099  RH  066%=      5-min Rain = 0
KSB1 111355Z 29006KT 16/10 A3012 RMK A01 T01620099  RH  066%=      5-min Rain = 0
KSB1 111356Z 28007KT 16/10 A3012 RMK A01 T01610098  RH  066%=      5-min Rain = 0
KSB1 111357Z 28006KT 16/10 A3012 RMK A01 T01620098  RH  066%=      5-min Rain = 0
KSB1 111358Z 28006KT 16/10 A3012 RMK A01 T01620098  RH  066%=      5-min Rain = 0
KSB1 111359Z 28006KT 16/10 A3012 RMK A01 T01620098  RH  066%=      5-min Rain = 0
KSB1 111400Z 28006KT 16/10 A3012 RMK A01 T01620098  RH  066%=      5-min Rain = 0
KSB1 111401Z 28006KT 16/10 A3012 RMK A01 T01620098  RH  066%=      5-min Rain = 0
KSB1 111402Z 28006KT 16/10 A3013 RMK A01 T01610098  RH  066%=      5-min Rain = 0
KSB1 111403Z 28005KT 16/10 A3013 RMK A01 T01610098  RH  066%=      5-min Rain = 0
KSB1 111404Z 28005KT 16/10 A3013 RMK A01 T01600098  RH  067%=      5-min Rain = 0
KSB1 111405Z 27004KT 16/10 A3013 RMK A01 T01600099  RH  067%=      5-min Rain = 0
KSB1 111406Z 28003KT 16/10 A3013 RMK A01 T01590099  RH  068%=      5-min Rain = 0
KSB1 111407Z 28003KT 16/10 A3013 RMK A01 T01560099  RH  069%=      5-min Rain = 0
KSB1 111408Z 28004KT 15/10 A3013 RMK A01 T01540099  RH  070%=      5-min Rain = 0
KSB1 111409Z 28004KT 15/10 A3013 RMK A01 T01530099  RH  070%=      5-min Rain = 0
KSB1 111410Z 29005KT 15/10 A3013 RMK A01 T01530099  RH  070%=      5-min Rain = 0
KSB1 111411Z 28005KT 16/10 A3013 RMK A01 T01550099  RH  069%=      5-min Rain = 0
KSB1 111412Z 29005KT 16/10 A3013 RMK A01 T01580098  RH  068%=      5-min Rain = 0
KSB1 111413Z 29006KT 16/10 A3013 RMK A01 T01610098  RH  066%=      5-min Rain = 0
KSB1 111414Z 29004KT 16/10 A3013 RMK A01 T01640098  RH  065%=      5-min Rain = 0
KSB1 111415Z 28004KT 17/10 A3013 RMK A01 T01650098  RH  064%=      5-min Rain = 0
KSB1 111416Z 28005KT 17/10 A3013 RMK A01 T01670098  RH  064%=      5-min Rain = 0
KSB1 111417Z 27004KT 17/10 A3013 RMK A01 T01670098  RH  064%=      5-min Rain = 0
KSB1 111418Z 27005KT 17/10 A3013 RMK A01 T01670098  RH  064%=      5-min Rain = 0
KSB1 111419Z 27004KT 17/10 A3013 RMK A01 T01680098  RH  063%=      5-min Rain = 0
KSB1 111420Z 28004KT 17/10 A3013 RMK A01 T01670098  RH  064%=      5-min Rain = 0
KSB1 111421Z 26004KT 17/10 A3013 RMK A01 T01670099  RH  064%=      5-min Rain = 0
KSB1 111422Z 26004KT 16/10 A3013 RMK A01 T01640100  RH  066%=      5-min Rain = 0
KSB1 111423Z 24003KT 16/10 A3013 RMK A01 T01610100  RH  067%=      5-min Rain = 0
KSB1 111424Z 22003KT 16/10 A3013 RMK A01 T01570099  RH  068%=      5-min Rain = 0
KSB1 111425Z 22003KT 16/10 A3013 RMK A01 T01550099  RH  069%=      5-min Rain = 0
KSB1 111426Z 22003KT 15/10 A3013 RMK A01 T01530100  RH  070%=      5-min Rain = 0
KSB1 111427Z 22003KT 15/10 A3013 RMK A01 T01520100  RH  071%=      5-min Rain = 0
KSB1 111428Z 23003KT 15/10 A3013 RMK A01 T01520100  RH  071%=      5-min Rain = 0
KSB1 111429Z 24003KT 15/10 A3013 RMK A01 T01520101  RH  071%=      5-min Rain = 0
KSB1 111430Z 25003KT 15/10 A3013 RMK A01 T01520100  RH  071%=      5-min Rain = 0
KSB1 111431Z 24003KT 15/10 A3013 RMK A01 T01520100  RH  071%=      5-min Rain = 0
KSB1 111432Z 24003KT 15/10 A3013 RMK A01 T01530100  RH  071%=      5-min Rain = 0
KSB1 111433Z 24003KT 15/10 A3013 RMK A01 T01530100  RH  070%=      5-min Rain = 0
KSB1 111434Z 24003KT 15/10 A3014 RMK A01 T01540099  RH  070%=      5-min Rain = 0
KSB1 111435Z 25003KT 16/10 A3014 RMK A01 T01550099  RH  069%=      5-min Rain = 0
KSB1 111436Z 26003KT 16/10 A3014 RMK A01 T01560099  RH  069%=      5-min Rain = 0
KSB1 111437Z 26003KT 16/10 A3014 RMK A01 T01560099  RH  069%=      5-min Rain = 0
KSB1 111438Z 27003KT 16/10 A3014 RMK A01 T01560100  RH  069%=      5-min Rain = 0
KSB1 111439Z 27003KT 16/10 A3014 RMK A01 T01560100  RH  069%=      5-min Rain = 0
KSB1 111440Z 28004KT 16/10 A3014 RMK A01 T01570100  RH  069%=      5-min Rain = 0
KSB1 111441Z 28004KT 16/10 A3014 RMK A01 T01570101  RH  069%=      5-min Rain = 0
KSB1 111442Z 28004KT 16/10 A3014 RMK A01 T01570101  RH  069%=      5-min Rain = 0
KSB1 111443Z 28004KT 16/10 A3014 RMK A01 T01570102  RH  070%=      5-min Rain = 0
KSB1 111444Z 28004KT 16/10 A3014 RMK A01 T01570102  RH  070%=      5-min Rain = 0
KSB1 111445Z 29004KT 16/10 A3014 RMK A01 T01580102  RH  069%=      5-min Rain = 0
KSB1 111446Z 29004KT 16/10 A3014 RMK A01 T01590102  RH  069%=      5-min Rain = 0
KSB1 111447Z 29004KT 16/10 A3014 RMK A01 T01600102  RH  068%=      5-min Rain = 0
KSB1 111448Z 29004KT 16/10 A3014 RMK A01 T01610102  RH  068%=      5-min Rain = 0
KSB1 111449Z 29004KT 16/10 A3014 RMK A01 T01620101  RH  067%=      5-min Rain = 0
KSB1 111450Z 29004KT 16/10 A3014 RMK A01 T01640100  RH  066%=      5-min Rain = 0
KSB1 111451Z 30004KT 17/10 A3014 RMK A01 T01650101  RH  066%=      5-min Rain = 0
KSB1 111452Z 30007KT 17/10 A3014 RMK A01 T01660100  RH  065%=      5-min Rain = 0
KSB1 111453Z 29006KT 17/10 A3014 RMK A01 T01680099  RH  064%=      5-min Rain = 0
KSB1 111454Z 29006KT 17/10 A3014 RMK A01 T01690100  RH  064%=      5-min Rain = 0
KSB1 111455Z 28005KT 17/10 A3014 RMK A01 T01700099  RH  063%=      5-min Rain = 0
KSB1 111456Z 29009KT 17/10 A3014 RMK A01 T01710099  RH  063%=      5-min Rain = 0
KSB1 111457Z 29007KT 17/10 A3014 RMK A01 T01710098  RH  062%=      5-min Rain = 0
KSB1 111458Z 29007KT 17/10 A3015 RMK A01 T01720099  RH  062%=      5-min Rain = 0
KSB1 111459Z 29005KT 17/10 A3015 RMK A01 T01720099  RH  062%=      5-min Rain = 0
KSB1 111500Z 30005KT 17/10 A3015 RMK A01 T01720099  RH  062%=      5-min Rain = 0
KSB1 111501Z 29006KT 17/10 A3015 RMK A01 T01730099  RH  062%=      5-min Rain = 0
KSB1 111502Z 30006KT 17/10 A3015 RMK A01 T01720099  RH  062%=      5-min Rain = 0
KSB1 111503Z 29004KT 17/10 A3015 RMK A01 T01730099  RH  062%=      5-min Rain = 0
KSB1 111504Z 29007KT 17/10 A3015 RMK A01 T01730099  RH  062%=      5-min Rain = 0
KSB1 111505Z 29007KT 17/10 A3015 RMK A01 T01730099  RH  062%=      5-min Rain = 0
KSB1 111506Z 30005KT 17/10 A3015 RMK A01 T01730099  RH  062%=      5-min Rain = 0
KSB1 111507Z 31006KT 17/10 A3015 RMK A01 T01730099  RH  062%=      5-min Rain = 0
KSB1 111508Z 30006KT 17/10 A3015 RMK A01 T01730099  RH  062%=      5-min Rain = 0
KSB1 111509Z 31006KT 17/10 A3015 RMK A01 T01730099  RH  062%=      5-min Rain = 0
KSB1 111510Z 31007KT 17/10 A3015 RMK A01 T01720099  RH  062%=      5-min Rain = 0
KSB1 111511Z 30004KT 17/10 A3015 RMK A01 T01720100  RH  062%=      5-min Rain = 0
KSB1 111512Z 30003KT 17/10 A3015 RMK A01 T01720100  RH  062%=      5-min Rain = 0
KSB1 111513Z 30004KT 17/10 A3015 RMK A01 T01720100  RH  063%=      5-min Rain = 0
KSB1 111514Z 32004KT 17/10 A3015 RMK A01 T01720100  RH  062%=      5-min Rain = 0
KSB1 111515Z 31005KT 17/10 A3015 RMK A01 T01720099  RH  062%=      5-min Rain = 0
KSB1 111516Z 31008KT 17/10 A3015 RMK A01 T01720099  RH  062%=      5-min Rain = 0
KSB1 111517Z 31008KT 17/10 A3015 RMK A01 T01720098  RH  062%=      5-min Rain = 0
KSB1 111518Z 32006KT 17/10 A3015 RMK A01 T01730098  RH  061%=      5-min Rain = 0
KSB1 111519Z 32007KT 17/10 A3015 RMK A01 T01730098  RH  061%=      5-min Rain = 0
KSB1 111520Z 00005KT 17/10 A3015 RMK A01 T01730100  RH  062%=      5-min Rain = 0
KSB1 111521Z 33002KT 17/10 A3015 RMK A01 T01720101  RH  063%=      5-min Rain = 0
KSB1 111522Z 02004KT 17/10 A3016 RMK A01 T01710101  RH  063%=      5-min Rain = 0
KSB1 111523Z 06006KT 17/10 A3016 RMK A01 T01690102  RH  064%=      5-min Rain = 0
KSB1 111524Z 07006KT 17/10 A3016 RMK A01 T01670102  RH  065%=      5-min Rain = 0
KSB1 111525Z 07005KT 17/10 A3016 RMK A01 T01660103  RH  066%=      5-min Rain = 0
KSB1 111526Z 08003KT 17/10 A3016 RMK A01 T01650102  RH  066%=      5-min Rain = 0
KSB1 111527Z 10003KT 17/10 A3016 RMK A01 T01650102  RH  066%=      5-min Rain = 0
KSB1 111528Z 10004KT 17/10 A3016 RMK A01 T01650103  RH  067%=      5-min Rain = 0
KSB1 111529Z 10004KT 17/10 A3016 RMK A01 T01650103  RH  067%=      5-min Rain = 0
KSB1 111530Z 09004KT 17/10 A3016 RMK A01 T01650103  RH  067%=      5-min Rain = 0
KSB1 111531Z 09004KT 17/10 A3016 RMK A01 T01650103  RH  067%=      5-min Rain = 0
KSB1 111532Z 08004KT 17/10 A3016 RMK A01 T01650103  RH  067%=      5-min Rain = 0
KSB1 111533Z 09003KT 17/10 A3016 RMK A01 T01650103  RH  067%=      5-min Rain = 0
KSB1 111534Z 09003KT 17/10 A3016 RMK A01 T01650103  RH  067%=      5-min Rain = 0
KSB1 111535Z 08003KT 17/10 A3016 RMK A01 T01650104  RH  067%=      5-min Rain = 0
KSB1 111536Z 07004KT 17/10 A3016 RMK A01 T01650104  RH  067%=      5-min Rain = 0
KSB1 111537Z 08003KT 17/10 A3017 RMK A01 T01650104  RH  067%=      5-min Rain = 0
KSB1 111538Z 09003KT 16/11 A3017 RMK A01 T01640105  RH  068%=      5-min Rain = 0
KSB1 111539Z 09003KT 16/10 A3017 RMK A01 T01640104  RH  068%=      5-min Rain = 0
KSB1 111540Z 10002KT 16/11 A3017 RMK A01 T01630105  RH  068%=      5-min Rain = 0
KSB1 111541Z 10002KT 16/11 A3017 RMK A01 T01620105  RH  069%=      5-min Rain = 0
KSB1 111542Z 11003KT 16/11 A3017 RMK A01 T01620105  RH  069%=      5-min Rain = 0
KSB1 111543Z 11003KT 16/10 A3017 RMK A01 T01620104  RH  069%=      5-min Rain = 0
KSB1 111544Z 12003KT 16/10 A3017 RMK A01 T01620104  RH  068%=      5-min Rain = 0
KSB1 111545Z 12003KT 16/10 A3017 RMK A01 T01620104  RH  068%=      5-min Rain = 0
KSB1 111546Z 12002KT 16/10 A3017 RMK A01 T01620103  RH  068%=      5-min Rain = 0
KSB1 111547Z 11003KT 16/10 A3017 RMK A01 T01620104  RH  068%=      5-min Rain = 0
KSB1 111548Z 11003KT 16/10 A3017 RMK A01 T01620104  RH  068%=      5-min Rain = 0
KSB1 111549Z 11004KT 16/10 A3017 RMK A01 T01620103  RH  068%=      5-min Rain = 0
KSB1 111550Z 11004KT 16/10 A3017 RMK A01 T01630102  RH  067%=      5-min Rain = 0
KSB1 111551Z 11004KT 16/10 A3017 RMK A01 T01640102  RH  067%=      5-min Rain = 0
KSB1 111552Z 11003KT 16/10 A3017 RMK A01 T01640102  RH  067%=      5-min Rain = 0
KSB1 111553Z 10003KT 16/10 A3017 RMK A01 T01640102  RH  067%=      5-min Rain = 0
KSB1 111554Z 09004KT 16/10 A3017 RMK A01 T01640103  RH  067%=      5-min Rain = 0
KSB1 111555Z 08003KT 16/10 A3017 RMK A01 T01640104  RH  067%=      5-min Rain = 0
KSB1 111556Z 08003KT 16/10 A3017 RMK A01 T01640104  RH  067%=      5-min Rain = 0
KSB1 111557Z 08003KT 16/10 A3017 RMK A01 T01640104  RH  068%=      5-min Rain = 0
KSB1 111558Z 08003KT 16/10 A3017 RMK A01 T01640104  RH  068%=      5-min Rain = 0
KSB1 111559Z 08003KT 16/10 A3017 RMK A01 T01640104  RH  068%=      5-min Rain = 0
KSB1 111600Z 07003KT 16/10 A3017 RMK A01 T01640104  RH  068%=      5-min Rain = 0
KSB1 111601Z 04005KT 17/10 A3017 RMK A01 T01650104  RH  067%=      5-min Rain = 0
KSB1 111602Z 02004KT 17/10 A3017 RMK A01 T01650102  RH  066%=      5-min Rain = 0
KSB1 111603Z 03004KT 17/10 A3017 RMK A01 T01660101  RH  066%=      5-min Rain = 0
KSB1 111604Z 01004KT 17/10 A3017 RMK A01 T01670100  RH  064%=      5-min Rain = 0
KSB1 111605Z 36003KT 17/10 A3017 RMK A01 T01690099  RH  064%=      5-min Rain = 0
KSB1 111606Z 00003KT 17/10 A3017 RMK A01 T01690099  RH  063%=      5-min Rain = 0
KSB1 111607Z 35003KT 17/10 A3017 RMK A01 T01700099  RH  063%=      5-min Rain = 0
KSB1 111608Z 36003KT 17/10 A3017 RMK A01 T01710098  RH  062%=      5-min Rain = 0
KSB1 111609Z 34003KT 17/10 A3018 RMK A01 T01720099  RH  062%=      5-min Rain = 0
KSB1 111610Z 34003KT 17/10 A3018 RMK A01 T01720100  RH  063%=      5-min Rain = 0
KSB1 111611Z 34003KT 17/10 A3018 RMK A01 T01710100  RH  063%=      5-min Rain = 0
KSB1 111612Z 34003KT 17/10 A3018 RMK A01 T01710100  RH  063%=      5-min Rain = 0
KSB1 111613Z 34003KT 17/10 A3018 RMK A01 T01710100  RH  063%=      5-min Rain = 0
KSB1 111614Z 33003KT 17/10 A3018 RMK A01 T01710100  RH  063%=      5-min Rain = 0
KSB1 111615Z 32002KT 17/10 A3018 RMK A01 T01720101  RH  063%=      5-min Rain = 0
KSB1 111616Z 33003KT 17/10 A3018 RMK A01 T01710101  RH  063%=      5-min Rain = 0
KSB1 111617Z 35003KT 17/10 A3018 RMK A01 T01720101  RH  063%=      5-min Rain = 0
KSB1 111618Z 05004KT 17/10 A3018 RMK A01 T01710102  RH  064%=      5-min Rain = 0
KSB1 111619Z 05003KT 17/10 A3018 RMK A01 T01700102  RH  064%=      5-min Rain = 0
KSB1 111620Z 04003KT 17/10 A3018 RMK A01 T01680102  RH  065%=      5-min Rain = 0
KSB1 111621Z 04003KT 17/10 A3018 RMK A01 T01670102  RH  066%=      5-min Rain = 0
KSB1 111622Z 04003KT 17/10 A3018 RMK A01 T01660102  RH  066%=      5-min Rain = 0
KSB1 111623Z 04002KT 17/10 A3018 RMK A01 T01650103  RH  067%=      5-min Rain = 0
KSB1 111624Z 01002KT 17/10 A3018 RMK A01 T01650103  RH  067%=      5-min Rain = 0
KSB1 111625Z 00001KT 16/10 A3018 RMK A01 T01640104  RH  067%=      5-min Rain = 0
KSB1 111626Z 33001KT 16/10 A3018 RMK A01 T01640104  RH  067%=      5-min Rain = 0
KSB1 111627Z 33001KT 16/10 A3018 RMK A01 T01640103  RH  067%=      5-min Rain = 0
KSB1 111628Z 34002KT 16/10 A3018 RMK A01 T01640102  RH  066%=      5-min Rain = 0
KSB1 111629Z 07001KT 16/10 A3018 RMK A01 T01640101  RH  066%=      5-min Rain = 0
KSB1 111630Z 10002KT 16/10 A3018 RMK A01 T01640100  RH  066%=      5-min Rain = 0
KSB1 111631Z 11002KT 16/10 A3018 RMK A01 T01640099  RH  065%=      5-min Rain = 0
KSB1 111632Z 10002KT 16/10 A3018 RMK A01 T01640100  RH  065%=      5-min Rain = 0
KSB1 111633Z 09002KT 17/10 A3017 RMK A01 T01650102  RH  066%=      5-min Rain = 0
KSB1 111634Z 10003KT 16/10 A3017 RMK A01 T01640103  RH  067%=      5-min Rain = 0
KSB1 111635Z 11003KT 16/10 A3017 RMK A01 T01640104  RH  068%=      5-min Rain = 0
KSB1 111636Z 12003KT 16/10 A3017 RMK A01 T01640104  RH  068%=      5-min Rain = 0
KSB1 111637Z 13003KT 16/10 A3017 RMK A01 T01630103  RH  067%=      5-min Rain = 0
KSB1 111638Z 15002KT 16/10 A3017 RMK A01 T01630103  RH  068%=      5-min Rain = 0
KSB1 111639Z 15002KT 16/11 A3018 RMK A01 T01630105  RH  068%=      5-min Rain = 0
KSB1 111640Z 15002KT 16/11 A3017 RMK A01 T01630105  RH  069%=      5-min Rain = 0
KSB1 111641Z 14002KT 16/11 A3017 RMK A01 T01630105  RH  069%=      5-min Rain = 0
KSB1 111642Z 14001KT 16/11 A3017 RMK A01 T01630105  RH  069%=      5-min Rain = 0
KSB1 111643Z 15001KT 16/11 A3017 RMK A01 T01630105  RH  069%=      5-min Rain = 0
KSB1 111644Z 14001KT 16/11 A3017 RMK A01 T01630105  RH  069%=      5-min Rain = 0
KSB1 111645Z 12001KT 16/11 A3017 RMK A01 T01630105  RH  069%=      5-min Rain = 0
KSB1 111646Z 11001KT 16/11 A3017 RMK A01 T01630105  RH  069%=      5-min Rain = 0
KSB1 111647Z 09002KT 16/11 A3017 RMK A01 T01630105  RH  069%=      5-min Rain = 0
KSB1 111648Z 07002KT 16/11 A3017 RMK A01 T01630105  RH  068%=      5-min Rain = 0
KSB1 111649Z 07002KT 16/11 A3017 RMK A01 T01630106  RH  069%=      5-min Rain = 0
KSB1 111650Z 06003KT 16/11 A3017 RMK A01 T01630105  RH  068%=      5-min Rain = 0
KSB1 111651Z 05003KT 16/10 A3017 RMK A01 T01630104  RH  068%=      5-min Rain = 0
KSB1 111652Z 05004KT 16/11 A3017 RMK A01 T01630105  RH  069%=      5-min Rain = 0
KSB1 111653Z 06004KT 16/11 A3017 RMK A01 T01630106  RH  069%=      5-min Rain = 0
KSB1 111654Z 06004KT 16/11 A3017 RMK A01 T01630106  RH  069%=      5-min Rain = 0
KSB1 111655Z 06004KT 16/11 A3018 RMK A01 T01630106  RH  069%=      5-min Rain = 0
KSB1 111656Z 07005KT 16/11 A3018 RMK A01 T01630106  RH  069%=      5-min Rain = 0
KSB1 111657Z 08004KT 16/11 A3018 RMK A01 T01630106  RH  069%=      5-min Rain = 0
KSB1 111658Z 08005KT 16/11 A3018 RMK A01 T01630106  RH  069%=      5-min Rain = 0
KSB1 111659Z 09004KT 16/11 A3017 RMK A01 T01630106  RH  069%=      5-min Rain = 0
KSB1 111700Z 09003KT 16/11 A3017 RMK A01 T01620106  RH  069%=      5-min Rain = 0
KSB1 111701Z 09004KT 16/11 A3017 RMK A01 T01620106  RH  069%=      5-min Rain = 0
KSB1 111702Z 09003KT 16/11 A3017 RMK A01 T01620106  RH  069%=      5-min Rain = 0
KSB1 111703Z 09003KT 16/11 A3017 RMK A01 T01620106  RH  069%=      5-min Rain = 0
KSB1 111704Z 08003KT 16/11 A3017 RMK A01 T01620106  RH  069%=      5-min Rain = 0
KSB1 111705Z 08004KT 16/11 A3017 RMK A01 T01620107  RH  070%=      5-min Rain = 0
KSB1 111706Z 08004KT 16/11 A3017 RMK A01 T01620106  RH  069%=      5-min Rain = 0
KSB1 111707Z 07003KT 16/11 A3017 RMK A01 T01620106  RH  069%=      5-min Rain = 0
KSB1 111708Z 06003KT 16/11 A3018 RMK A01 T01620105  RH  069%=      5-min Rain = 0
KSB1 111709Z 06003KT 16/11 A3018 RMK A01 T01620106  RH  069%=      5-min Rain = 0
KSB1 111710Z 07003KT 16/11 A3018 RMK A01 T01620105  RH  069%=      5-min Rain = 0
KSB1 111711Z 07003KT 16/11 A3018 RMK A01 T01630106  RH  069%=      5-min Rain = 0
KSB1 111712Z 08003KT 16/11 A3018 RMK A01 T01630105  RH  069%=      5-min Rain = 0
KSB1 111713Z 08003KT 16/11 A3018 RMK A01 T01630106  RH  069%=      5-min Rain = 0
KSB1 111714Z 09003KT 16/11 A3018 RMK A01 T01630105  RH  069%=      5-min Rain = 0
KSB1 111715Z 10003KT 16/11 A3018 RMK A01 T01640105  RH  068%=      5-min Rain = 0
KSB1 111716Z 09004KT 16/11 A3018 RMK A01 T01640105  RH  068%=      5-min Rain = 0
KSB1 111717Z 07003KT 17/10 A3018 RMK A01 T01650100  RH  065%=      5-min Rain = 0
KSB1 111718Z 06003KT 17/10 A3018 RMK A01 T01670099  RH  064%=      5-min Rain = 0
KSB1 111719Z 07003KT 17/10 A3018 RMK A01 T01680102  RH  065%=      5-min Rain = 0
KSB1 111720Z 10002KT 17/10 A3018 RMK A01 T01680102  RH  065%=      5-min Rain = 0
KSB1 111721Z 13002KT 17/10 A3018 RMK A01 T01680103  RH  065%=      5-min Rain = 0
KSB1 111722Z 13002KT 17/10 A3018 RMK A01 T01680103  RH  065%=      5-min Rain = 0
KSB1 111723Z 12002KT 17/10 A3018 RMK A01 T01680104  RH  066%=      5-min Rain = 0
KSB1 111724Z 14002KT 17/10 A3018 RMK A01 T01680104  RH  066%=      5-min Rain = 0
KSB1 111725Z 15003KT 17/11 A3018 RMK A01 T01670105  RH  067%=      5-min Rain = 0
KSB1 111726Z 14003KT 17/11 A3018 RMK A01 T01670106  RH  067%=      5-min Rain = 0
KSB1 111727Z 13005KT 17/11 A3017 RMK A01 T01670106  RH  067%=      5-min Rain = 0
KSB1 111728Z 14005KT 17/11 A3017 RMK A01 T01670105  RH  067%=      5-min Rain = 0
KSB1 111729Z 14006KT 17/10 A3017 RMK A01 T01670104  RH  067%=      5-min Rain = 0
KSB1 111730Z 14005KT 17/11 A3017 RMK A01 T01670105  RH  067%=      5-min Rain = 0
KSB1 111731Z 15005KT 17/11 A3017 RMK A01 T01670105  RH  067%=      5-min Rain = 0
KSB1 111732Z 15005KT 17/11 A3018 RMK A01 T01670106  RH  067%=      5-min Rain = 0
KSB1 111733Z 15006KT 17/11 A3018 RMK A01 T01670106  RH  067%=      5-min Rain = 0
KSB1 111734Z 15006KT 17/11 A3018 RMK A01 T01670105  RH  067%=      5-min Rain = 0
KSB1 111735Z 15006KT 17/11 A3018 RMK A01 T01670106  RH  067%=      5-min Rain = 0
KSB1 111736Z 15006KT 17/11 A3018 RMK A01 T01670107  RH  068%=      5-min Rain = 0
KSB1 111737Z 15006KT 17/11 A3018 RMK A01 T01660107  RH  068%=      5-min Rain = 0
KSB1 111738Z 14007KT 17/11 A3018 RMK A01 T01650107  RH  068%=      5-min Rain = 0
KSB1 111739Z 14006KT 17/11 A3018 RMK A01 T01650107  RH  068%=      5-min Rain = 0
KSB1 111740Z 14007KT 17/11 A3018 RMK A01 T01650107  RH  068%=      5-min Rain = 0
KSB1 111741Z 14008KT 16/11 A3018 RMK A01 T01640106  RH  068%=      5-min Rain = 0
KSB1 111742Z 14008KT 17/11 A3018 RMK A01 T01650107  RH  069%=      5-min Rain = 0
KSB1 111743Z 13007KT 17/11 A3018 RMK A01 T01650107  RH  069%=      5-min Rain = 0
KSB1 111744Z 13010KT 16/11 A3018 RMK A01 T01640108  RH  069%=      5-min Rain = 0
KSB1 111745Z 13010KT 16/11 A3018 RMK A01 T01640107  RH  069%=      5-min Rain = 0
KSB1 111746Z 13009KT 16/11 A3018 RMK A01 T01630108  RH  070%=      5-min Rain = 0
KSB1 111747Z 13009KT 16/11 A3018 RMK A01 T01630108  RH  070%=      5-min Rain = 0
KSB1 111748Z 13009KT 16/11 A3018 RMK A01 T01630108  RH  070%=      5-min Rain = 0
KSB1 111749Z 13011KT 16/11 A3018 RMK A01 T01630108  RH  070%=      5-min Rain = 0
KSB1 111750Z 13011KT 16/11 A3018 RMK A01 T01630108  RH  070%=      5-min Rain = 0
KSB1 111751Z 12011KT 16/11 A3018 RMK A01 T01630108  RH  070%=      5-min Rain = 0
KSB1 111752Z 13014G19KT 16/11 A3018 RMK A01 T01630108  RH  070%=      5-min Rain = 0
KSB1 111753Z 13017KT 16/11 A3018 RMK A01 T01620109  RH  071%=      5-min Rain = 0
KSB1 111754Z 12018KT 16/11 A3019 RMK A01 T01580109  RH  073%=      5-min Rain = 0
KSB1 111755Z 12016G21KT 16/11 A3019 RMK A01 T01550109  RH  074%=      5-min Rain = 0
KSB1 111756Z 12012KT 15/11 A3019 RMK A01 T01520110  RH  076%=      5-min Rain = 0
KSB1 111757Z 11012KT 15/11 A3019 RMK A01 T01510110  RH  077%=      5-min Rain = 0
KSB1 111758Z 11013KT 15/11 A302 RMK A01 T01500111  RH  077%=      5-min Rain = 0
KSB1 111759Z 12011KT 15/11 A302 RMK A01 T01490110  RH  078%=      5-min Rain = 0
KSB1 111800Z 12008KT 15/11 A302 RMK A01 T01480110  RH  078%=      5-min Rain = 0
KSB1 111801Z 11012KT 15/11 A302 RMK A01 T01480109  RH  078%=      5-min Rain = 0
KSB1 111802Z 11015KT 15/11 A302 RMK A01 T01470107  RH  077%=      5-min Rain = 0
KSB1 111803Z 10016KT 15/11 A3021 RMK A01 T01460105  RH  076%=      5-min Rain = 0
KSB1 111804Z 11017KT 15/10 A3021 RMK A01 T01450102  RH  075%=      5-min Rain = 0
KSB1 111805Z 11014KT 14/10 A3021 RMK A01 T01440100  RH  075%=      5-min Rain = 0
KSB1 111806Z 11015KT 14/10 A3021 RMK A01 T01430099  RH  075%=      5-min Rain = 0
KSB1 111807Z 11014KT 14/10 A3021 RMK A01 T01420098  RH  075%=      5-min Rain = 0
KSB1 111808Z 11017KT 14/10 A3022 RMK A01 T01410097  RH  075%=      5-min Rain = 0
KSB1 111809Z 12013G18KT 14/10 A3022 RMK A01 T01380096  RH  076%=      5-min Rain = 0
KSB1 111810Z 12018KT 14/09 A3022 RMK A01 T01360094  RH  076%=      5-min Rain = 0
KSB1 111811Z 12016KT 13/09 A3022 RMK A01 T01320092  RH  076%=      5-min Rain = 0
KSB1 111812Z 13017KT 13/09 A3022 RMK A01 T01290090  RH  077%=      5-min Rain = 0
KSB1 111813Z 12016KT 13/09 A3022 RMK A01 T01250089  RH  079%=      5-min Rain = 0
KSB1 111814Z 12019KT 12/09 A3022 RMK A01 T01230088  RH  079%=      5-min Rain = 0
KSB1 111815Z 12017KT 12/09 A3022 RMK A01 T01210085  RH  078%=      5-min Rain = 0
KSB1 111816Z 13015KT 12/09 A3022 RMK A01 T01200085  RH  079%=      5-min Rain = 0
KSB1 111817Z 11015KT 12/08 A3022 RMK A01 T01190084  RH  079%=      5-min Rain = 0
KSB1 111818Z 12016KT 12/08 A3022 RMK A01 T01190082  RH  078%=      5-min Rain = 0
KSB1 111819Z 13013KT 12/08 A3022 RMK A01 T01180081  RH  078%=      5-min Rain = 0
KSB1 111820Z 12015G20KT 12/08 A3022 RMK A01 T01170081  RH  078%=      5-min Rain = 0
KSB1 111821Z 12013G18KT 12/08 A3022 RMK A01 T01170080  RH  078%=      5-min Rain = 0
KSB1 111822Z 13017KT 12/08 A3022 RMK A01 T01170079  RH  078%=      5-min Rain = 0
KSB1 111823Z 12014G20KT 12/08 A3022 RMK A01 T01160078  RH  077%=      5-min Rain = 0
KSB1 111824Z 13014KT 12/08 A3022 RMK A01 T01150076  RH  077%=      5-min Rain = 0
KSB1 111825Z 13015G20KT 12/08 A3022 RMK A01 T01150075  RH  076%=      5-min Rain = 0
KSB1 111826Z 13016KT 11/07 A3022 RMK A01 T01140074  RH  076%=      5-min Rain = 0
KSB1 111827Z 13015G21KT 11/07 A3023 RMK A01 T01140074  RH  077%=      5-min Rain = 0
KSB1 111828Z 12017KT 11/07 A3023 RMK A01 T01130074  RH  077%=      5-min Rain = 0
KSB1 111829Z 12013KT 11/07 A3023 RMK A01 T01120074  RH  077%=      5-min Rain = 0
KSB1 111830Z 12015KT 11/08 A3023 RMK A01 T01120075  RH  078%=      5-min Rain = 0
KSB1 111831Z 12014KT 11/07 A3023 RMK A01 T01110073  RH  077%=      5-min Rain = 0
KSB1 111832Z 12012G17KT 11/07 A3024 RMK A01 T01110073  RH  078%=      5-min Rain = 0
KSB1 111833Z 13013KT 11/07 A3024 RMK A01 T01110073  RH  077%=      5-min Rain = 0
KSB1 111834Z 12014KT 11/07 A3024 RMK A01 T01100071  RH  077%=      5-min Rain = 0
KSB1 111835Z 12016G21KT 11/07 A3024 RMK A01 T01100069  RH  076%=      5-min Rain = 0
KSB1 111836Z 13013KT 11/07 A3024 RMK A01 T01090067  RH  075%=      5-min Rain = 0
KSB1 111837Z 13017KT 11/07 A3024 RMK A01 T01100067  RH  075%=      5-min Rain = 0
KSB1 111838Z 12017KT 11/07 A3024 RMK A01 T01100066  RH  074%=      5-min Rain = 0
KSB1 111839Z 12014KT 11/07 A3024 RMK A01 T01090065  RH  074%=      5-min Rain = 0
KSB1 111840Z 12017G23KT 11/07 A3024 RMK A01 T01080065  RH  075%=      5-min Rain = 0
KSB1 111841Z 11019KT 11/06 A3024 RMK A01 T01080064  RH  075%=      5-min Rain = 0
KSB1 111842Z 11018KT 11/06 A3024 RMK A01 T01070064  RH  075%=      5-min Rain = 0
KSB1 111843Z 11016KT 11/06 A3024 RMK A01 T01070064  RH  075%=      5-min Rain = 0
KSB1 111844Z 12020G25KT 11/06 A3024 RMK A01 T01060064  RH  075%=      5-min Rain = 0
KSB1 111845Z 12018KT 11/06 A3024 RMK A01 T01050063  RH  075%=      5-min Rain = 0
KSB1 111846Z 12018KT 11/06 A3024 RMK A01 T01050063  RH  075%=      5-min Rain = 0
KSB1 111847Z 12019KT 10/06 A3024 RMK A01 T01040064  RH  076%=      5-min Rain = 0
KSB1 111848Z 11017KT 10/06 A3024 RMK A01 T01040064  RH  076%=      5-min Rain = 0
KSB1 111849Z 12015KT 10/07 A3025 RMK A01 T01040065  RH  077%=      5-min Rain = 0
KSB1 111850Z 12016G21KT 10/07 A3025 RMK A01 T01040065  RH  077%=      5-min Rain = 0
KSB1 111851Z 12018KT 10/06 A3025 RMK A01 T01030064  RH  076%=      5-min Rain = 0
KSB1 111852Z 12017KT 10/06 A3025 RMK A01 T01020062  RH  076%=      5-min Rain = 0
KSB1 111853Z 13017KT 10/06 A3025 RMK A01 T01010061  RH  076%=      5-min Rain = 0
KSB1 111854Z 12018KT 10/06 A3025 RMK A01 T01000060  RH  076%=      5-min Rain = 0
KSB1 111855Z 12019KT 10/06 A3024 RMK A01 T00990060  RH  077%=      5-min Rain = 0
KSB1 111856Z 12020G26KT 10/06 A3024 RMK A01 T00990059  RH  076%=      5-min Rain = 0
KSB1 111857Z 13016G22KT 10/06 A3024 RMK A01 T00990059  RH  076%=      5-min Rain = 0
KSB1 111858Z 13021KT 10/06 A3024 RMK A01 T00990059  RH  076%=      5-min Rain = 0
KSB1 111859Z 13018KT 10/06 A3025 RMK A01 T00980057  RH  076%=      5-min Rain = 0
KSB1 111900Z 13019KT 10/06 A3025 RMK A01 T00970056  RH  076%=      5-min Rain = 0
KSB1 111901Z 12020KT 10/06 A3025 RMK A01 T00960055  RH  076%=      5-min Rain = 0
KSB1 111902Z 12018KT 10/05 A3025 RMK A01 T00960054  RH  075%=      5-min Rain = 0
KSB1 111903Z 13014KT 10/05 A3025 RMK A01 T00950054  RH  075%=      5-min Rain = 0
KSB1 111904Z 13019KT 10/05 A3025 RMK A01 T00950053  RH  075%=      5-min Rain = 0
KSB1 111905Z 13016KT 09/05 A3025 RMK A01 T00930053  RH  076%=      5-min Rain = 0
KSB1 111906Z 12017KT 09/06 A3025 RMK A01 T00920056  RH  078%=      5-min Rain = 0
KSB1 111907Z 12016KT 09/06 A3025 RMK A01 T00910058  RH  080%=      5-min Rain = 0
KSB1 111908Z 12017G23KT 09/06 A3025 RMK A01 T00910061  RH  082%=      5-min Rain = 0
KSB1 111909Z 12022KT 09/06 A3025 RMK A01 T00890058  RH  081%=      5-min Rain = 0
KSB1 111910Z 11019KT 09/06 A3025 RMK A01 T00880056  RH  081%=      5-min Rain = 0
KSB1 111911Z 11018KT 09/06 A3025 RMK A01 T00870058  RH  082%=      5-min Rain = 0
KSB1 111912Z 11020KT 09/06 A3025 RMK A01 T00850058  RH  083%=      5-min Rain = 0
KSB1 111913Z 11019KT 09/06 A3025 RMK A01 T00850058  RH  083%=      5-min Rain = 0
KSB1 111914Z 11016KT 08/06 A3025 RMK A01 T00840058  RH  084%=      5-min Rain = 0
KSB1 111915Z 12016KT 08/06 A3025 RMK A01 T00830060  RH  085%=      5-min Rain = 0
KSB1 111916Z 12018KT 08/06 A3025 RMK A01 T00830059  RH  085%=      5-min Rain = 0
KSB1 111917Z 12018KT 08/06 A3025 RMK A01 T00820056  RH  084%=      5-min Rain = 0
KSB1 111918Z 11019KT 08/06 A3025 RMK A01 T00820056  RH  083%=      5-min Rain = 0
KSB1 111919Z 11021KT 08/05 A3025 RMK A01 T00810054  RH  083%=      5-min Rain = 0
KSB1 111920Z 11020KT 08/05 A3025 RMK A01 T00800054  RH  084%=      5-min Rain = 0
KSB1 111921Z 11020KT 08/05 A3025 RMK A01 T00790054  RH  084%=      5-min Rain = 0
KSB1 111922Z 11016KT 08/05 A3026 RMK A01 T00780054  RH  085%=      5-min Rain = 0
KSB1 111923Z 12015KT 08/06 A3026 RMK A01 T00780057  RH  086%=      5-min Rain = 0
KSB1 111924Z 12012KT 08/06 A3026 RMK A01 T00790059  RH  087%=      5-min Rain = 0
KSB1 111925Z 12017G23KT 08/06 A3025 RMK A01 T00780061  RH  089%=      5-min Rain = 0
KSB1 111926Z 12021KT 08/06 A3025 RMK A01 T00770056  RH  087%=      5-min Rain = 0
KSB1 111927Z 11022KT 08/06 A3026 RMK A01 T00760055  RH  086%=      5-min Rain = 0
KSB1 111928Z 11019KT 08/05 A3026 RMK A01 T00750054  RH  086%=      5-min Rain = 0
KSB1 111929Z 11023KT 07/05 A3026 RMK A01 T00740052  RH  086%=      5-min Rain = 0
KSB1 111930Z 11021KT 07/05 A3026 RMK A01 T00730050  RH  086%=      5-min Rain = 0
KSB1 111931Z 12019KT 07/05 A3026 RMK A01 T00720050  RH  086%=      5-min Rain = 0
KSB1 111932Z 11016KT 07/05 A3026 RMK A01 T00710050  RH  087%=      5-min Rain = 0
KSB1 111933Z 10016KT 07/05 A3026 RMK A01 T00710053  RH  089%=      5-min Rain = 0
KSB1 111934Z 11014G19KT 07/05 A3026 RMK A01 T00710053  RH  088%=      5-min Rain = 0
KSB1 111935Z 11015G24KT 07/05 A3026 RMK A01 T00710054  RH  089%=      5-min Rain = 0
KSB1 111936Z 12021KT 07/05 A3026 RMK A01 T00710051  RH  088%=      5-min Rain = 0
KSB1 111937Z 12018KT 07/05 A3026 RMK A01 T00690047  RH  086%=      5-min Rain = 0
KSB1 111938Z 12019KT 07/05 A3026 RMK A01 T00680047  RH  086%=      5-min Rain = 0
KSB1 111939Z 11021G26KT 07/05 A3026 RMK A01 T00670046  RH  086%=      5-min Rain = 0
KSB1 111940Z 11017KT 07/05 A3026 RMK A01 T00660046  RH  087%=      5-min Rain = 0
KSB1 111941Z 11017G22KT 07/05 A3026 RMK A01 T00660048  RH  088%=      5-min Rain = 0
KSB1 111942Z 12020G25KT 07/05 A3026 RMK A01 T00650048  RH  089%=      5-min Rain = 0
KSB1 111943Z 12017KT 06/05 A3026 RMK A01 T00640047  RH  089%=      5-min Rain = 0
KSB1 111944Z 12019G24KT 06/05 A3026 RMK A01 T00640049  RH  090%=      5-min Rain = 0
KSB1 111945Z 12020KT 06/05 A3026 RMK A01 T00630046  RH  089%=      5-min Rain = 0
KSB1 111946Z 12014KT 06/05 A3026 RMK A01 T00630047  RH  090%=      5-min Rain = 0
KSB1 111947Z 13017KT 06/05 A3026 RMK A01 T00630049  RH  091%=      5-min Rain = 0
KSB1 111948Z 12016KT 06/05 A3026 RMK A01 T00620048  RH  091%=      5-min Rain = 0
KSB1 111949Z 13016KT 06/05 A3026 RMK A01 T00610048  RH  091%=      5-min Rain = 0
KSB1 111950Z 13017KT 06/05 A3026 RMK A01 T00610048  RH  091%=      5-min Rain = 0
KSB1 111951Z 12016KT 06/05 A3026 RMK A01 T00610048  RH  091%=      5-min Rain = 0
KSB1 111952Z 12017KT 06/05 A3026 RMK A01 T00610048  RH  092%=      5-min Rain = 0
KSB1 111953Z 13016KT 06/05 A3026 RMK A01 T00610049  RH  092%=      5-min Rain = 0
KSB1 111954Z 12020KT 06/05 A3026 RMK A01 T00600047  RH  091%=      5-min Rain = 0
KSB1 111955Z 12018KT 06/05 A3026 RMK A01 T00590045  RH  090%=      5-min Rain = 0
KSB1 111956Z 12018KT 06/05 A3026 RMK A01 T00590045  RH  091%=      5-min Rain = 0
KSB1 111957Z 11019KT 06/04 A3026 RMK A01 T00580044  RH  090%=      5-min Rain = 0
KSB1 111958Z 12019KT 06/04 A3026 RMK A01 T00580043  RH  090%=      5-min Rain = 0
KSB1 111959Z 12019KT 06/04 A3026 RMK A01 T00580042  RH  090%=      5-min Rain = 0
KSB1 112000Z 12017KT 06/04 A3026 RMK A01 T00580043  RH  090%=      5-min Rain = 0
KSB1 112001Z 11018KT 06/04 A3026 RMK A01 T00570042  RH  090%=      5-min Rain = 0
KSB1 112002Z 11016KT 06/04 A3026 RMK A01 T00570043  RH  091%=      5-min Rain = 0
KSB1 112003Z 12019G24KT 06/04 A3026 RMK A01 T00580043  RH  090%=      5-min Rain = 0
KSB1 112004Z 11020KT 06/04 A3026 RMK A01 T00570041  RH  089%=      5-min Rain = 0
KSB1 112005Z 11018KT 06/04 A3026 RMK A01 T00570040  RH  089%=      5-min Rain = 0
KSB1 112006Z 12019KT 06/04 A3027 RMK A01 T00570040  RH  089%=      5-min Rain = 0
KSB1 112007Z 12016KT 06/04 A3027 RMK A01 T00570040  RH  089%=      5-min Rain = 0
KSB1 112008Z 12014G19KT 06/04 A3027 RMK A01 T00570041  RH  090%=      5-min Rain = 0
KSB1 112009Z 12017KT 06/04 A3027 RMK A01 T00570041  RH  090%=      5-min Rain = 0
KSB1 112010Z 12016KT 06/04 A3027 RMK A01 T00570040  RH  089%=      5-min Rain = 0
KSB1 112011Z 12014KT 06/04 A3027 RMK A01 T00570041  RH  090%=      5-min Rain = 0
KSB1 112012Z 12014G19KT 06/04 A3027 RMK A01 T00560040  RH  089%=      5-min Rain = 0
KSB1 112013Z 12017KT 06/04 A3027 RMK A01 T00560039  RH  089%=      5-min Rain = 0
KSB1 112014Z 12018KT 06/04 A3027 RMK A01 T00560037  RH  087%=      5-min Rain = 0
KSB1 112015Z 12014KT 06/04 A3027 RMK A01 T00560036  RH  087%=      5-min Rain = 0
KSB1 112016Z 12013KT 06/04 A3027 RMK A01 T00560037  RH  088%=      5-min Rain = 0
KSB1 112017Z 12015KT 06/04 A3027 RMK A01 T00560038  RH  088%=      5-min Rain = 0
KSB1 112018Z 11018KT 06/04 A3027 RMK A01 T00550035  RH  087%=      5-min Rain = 0
KSB1 112019Z 11017KT 06/03 A3027 RMK A01 T00560033  RH  086%=      5-min Rain = 0
KSB1 112020Z 11015KT 06/03 A3027 RMK A01 T00550033  RH  085%=      5-min Rain = 0
KSB1 112021Z 11015KT 06/03 A3027 RMK A01 T00560034  RH  086%=      5-min Rain = 0
KSB1 112022Z 11016KT 06/03 A3027 RMK A01 T00550033  RH  086%=      5-min Rain = 0
KSB1 112023Z 11013KT 06/03 A3027 RMK A01 T00560034  RH  086%=      5-min Rain = 0
KSB1 112024Z 12015KT 06/03 A3028 RMK A01 T00550034  RH  086%=      5-min Rain = 0
KSB1 112025Z 12014KT 06/03 A3028 RMK A01 T00550033  RH  086%=      5-min Rain = 0
KSB1 112026Z 12017KT 06/03 A3028 RMK A01 T00550032  RH  085%=      5-min Rain = 0
KSB1 112027Z 12015KT 05/03 A3028 RMK A01 T00540030  RH  084%=      5-min Rain = 0
KSB1 112028Z 12014KT 05/03 A3028 RMK A01 T00540030  RH  084%=      5-min Rain = 0
KSB1 112029Z 12015KT 05/03 A3028 RMK A01 T00540031  RH  085%=      5-min Rain = 0
KSB1 112030Z 12014KT 05/03 A3029 RMK A01 T00540030  RH  085%=      5-min Rain = 0
KSB1 112031Z 12016KT 05/03 A3029 RMK A01 T00540030  RH  084%=      5-min Rain = 0
KSB1 112032Z 11016KT 05/03 A3028 RMK A01 T00540028  RH  084%=      5-min Rain = 0
KSB1 112033Z 11015G20KT 05/03 A3028 RMK A01 T00540028  RH  084%=      5-min Rain = 0
KSB1 112034Z 11015KT 05/03 A3028 RMK A01 T00530027  RH  083%=      5-min Rain = 0
KSB1 112035Z 12015KT 05/03 A3028 RMK A01 T00530027  RH  084%=      5-min Rain = 0
KSB1 112036Z 11015G20KT 05/03 A3028 RMK A01 T00530027  RH  084%=      5-min Rain = 0
KSB1 112037Z 11017KT 05/03 A3028 RMK A01 T00530027  RH  083%=      5-min Rain = 0
KSB1 112038Z 11015KT 05/03 A3028 RMK A01 T00530026  RH  083%=      5-min Rain = 0
KSB1 112039Z 11013KT 05/03 A3029 RMK A01 T00530027  RH  083%=      5-min Rain = 0
KSB1 112040Z 11012KT 05/03 A3029 RMK A01 T00540028  RH  084%=      5-min Rain = 0
KSB1 112041Z 11012G17KT 05/03 A3029 RMK A01 T00530029  RH  084%=      5-min Rain = 0
KSB1 112042Z 11014G19KT 05/03 A3029 RMK A01 T00540028  RH  084%=      5-min Rain = 0
KSB1 112043Z 11013KT 05/03 A3029 RMK A01 T00530026  RH  083%=      5-min Rain = 0
KSB1 112044Z 11012KT 05/03 A3029 RMK A01 T00530026  RH  083%=      5-min Rain = 0
KSB1 112045Z 11013KT 05/03 A3029 RMK A01 T00530026  RH  083%=      5-min Rain = 0
KSB1 112046Z 11014KT 05/03 A3029 RMK A01 T00530026  RH  083%=      5-min Rain = 0
KSB1 112047Z 11016KT 05/03 A3029 RMK A01 T00530025  RH  082%=      5-min Rain = 0
KSB1 112048Z 11017KT 05/02 A3029 RMK A01 T00530024  RH  082%=      5-min Rain = 0
KSB1 112049Z 11017KT 05/02 A3029 RMK A01 T00530024  RH  082%=      5-min Rain = 0
KSB1 112050Z 11012KT 05/02 A3029 RMK A01 T00520023  RH  081%=      5-min Rain = 0
KSB1 112051Z 12012KT 05/02 A3029 RMK A01 T00520024  RH  082%=      5-min Rain = 0
KSB1 112052Z 11012KT 05/03 A3029 RMK A01 T00520025  RH  083%=      5-min Rain = 0
KSB1 112053Z 11012KT 05/03 A3029 RMK A01 T00530025  RH  083%=      5-min Rain = 0
KSB1 112054Z 10011KT 05/03 A3029 RMK A01 T00530025  RH  082%=      5-min Rain = 0
KSB1 112055Z 11014KT 05/03 A3029 RMK A01 T00530025  RH  082%=      5-min Rain = 0
KSB1 112056Z 11014KT 05/02 A3029 RMK A01 T00530024  RH  082%=      5-min Rain = 0
KSB1 112057Z 11011G16KT 05/03 A3029 RMK A01 T00540025  RH  082%=      5-min Rain = 0
KSB1 112058Z 11014KT 05/02 A303 RMK A01 T00540024  RH  081%=      5-min Rain = 0
KSB1 112059Z 11011KT 05/02 A303 RMK A01 T00540024  RH  081%=      5-min Rain = 0
KSB1 112100Z 11011G16KT 05/03 A303 RMK A01 T00530025  RH  082%=      5-min Rain = 0
KSB1 112101Z 12015KT 05/03 A303 RMK A01 T00530025  RH  082%=      5-min Rain = 0
KSB1 112102Z 12016KT 05/02 A303 RMK A01 T00530024  RH  082%=      5-min Rain = 0
KSB1 112103Z 11014G19KT 05/02 A303 RMK A01 T00520024  RH  082%=      5-min Rain = 0
KSB1 112104Z 11013G19KT 05/03 A303 RMK A01 T00520025  RH  083%=      5-min Rain = 0
KSB1 112105Z 11013KT 05/03 A303 RMK A01 T00510026  RH  083%=      5-min Rain = 0
KSB1 112106Z 12014KT 05/03 A303 RMK A01 T00510025  RH  084%=      5-min Rain = 0
KSB1 112107Z 12016G21KT 05/02 A303 RMK A01 T00500024  RH  083%=      5-min Rain = 0
KSB1 112108Z 11015KT 05/02 A303 RMK A01 T00480021  RH  083%=      5-min Rain = 0
KSB1 112109Z 11014KT 05/02 A3031 RMK A01 T00470022  RH  083%=      5-min Rain = 0
KSB1 112110Z 10010KT 05/02 A3031 RMK A01 T00470022  RH  084%=      5-min Rain = 0
KSB1 112111Z 10011KT 05/02 A3031 RMK A01 T00460022  RH  084%=      5-min Rain = 0
KSB1 112112Z 10012KT 05/02 A3031 RMK A01 T00470023  RH  084%=      5-min Rain = 0
KSB1 112113Z 10012KT 05/02 A3031 RMK A01 T00460023  RH  085%=      5-min Rain = 0
KSB1 112114Z 11013KT 05/02 A3031 RMK A01 T00460022  RH  084%=      5-min Rain = 0
KSB1 112115Z 10014KT 05/02 A3031 RMK A01 T00450021  RH  084%=      5-min Rain = 0
KSB1 112116Z 10011KT 04/02 A3031 RMK A01 T00440022  RH  085%=      5-min Rain = 0
KSB1 112117Z 10013KT 04/02 A3031 RMK A01 T00440023  RH  086%=      5-min Rain = 0
KSB1 112118Z 11013KT 04/02 A3031 RMK A01 T00440024  RH  087%=      5-min Rain = 0
KSB1 112119Z 11014KT 04/02 A3031 RMK A01 T00440023  RH  087%=      5-min Rain = 0
KSB1 112120Z 10013KT 04/02 A3031 RMK A01 T00430023  RH  087%=      5-min Rain = 0
KSB1 112121Z 11013KT 04/02 A3031 RMK A01 T00430023  RH  087%=      5-min Rain = 0
KSB1 112122Z 10012KT 04/02 A3031 RMK A01 T00430024  RH  088%=      5-min Rain = 0
KSB1 112123Z 10015KT 04/02 A3031 RMK A01 T00430023  RH  087%=      5-min Rain = 0
KSB1 112124Z 10013G18KT 04/02 A3031 RMK A01 T00420022  RH  087%=      5-min Rain = 0
KSB1 112125Z 10012G18KT 04/02 A3031 RMK A01 T00420024  RH  088%=      5-min Rain = 0
KSB1 112126Z 09012KT 04/02 A3031 RMK A01 T00420023  RH  088%=      5-min Rain = 0
KSB1 112127Z 10010KT 04/02 A3031 RMK A01 T00410023  RH  088%=      5-min Rain = 0
KSB1 112128Z 10012KT 04/03 A3031 RMK A01 T00410025  RH  089%=      5-min Rain = 0
KSB1 112129Z 11014KT 04/02 A3031 RMK A01 T00410024  RH  088%=      5-min Rain = 0
KSB1 112130Z 10013KT 04/02 A3032 RMK A01 T00400022  RH  088%=      5-min Rain = 0
KSB1 112131Z 10012KT 04/02 A3032 RMK A01 T00400022  RH  088%=      5-min Rain = 0
KSB1 112132Z 09008KT 04/02 A3032 RMK A01 T00390023  RH  089%=      5-min Rain = 0
KSB1 112133Z 10008KT 04/03 A3032 RMK A01 T00390025  RH  090%=      5-min Rain = 0
KSB1 112134Z 09008KT 04/03 A3032 RMK A01 T00400026  RH  091%=      5-min Rain = 0
KSB1 112135Z 10008KT 04/03 A3032 RMK A01 T00400027  RH  091%=      5-min Rain = 0
KSB1 112136Z 10012KT 04/03 A3032 RMK A01 T00400026  RH  091%=      5-min Rain = 0
KSB1 112137Z 10011KT 04/02 A3032 RMK A01 T00390024  RH  090%=      5-min Rain = 0
KSB1 112138Z 09012KT 04/02 A3032 RMK A01 T00380024  RH  090%=      5-min Rain = 0
KSB1 112139Z 10013KT 04/02 A3032 RMK A01 T00380023  RH  090%=      5-min Rain = 0
KSB1 112140Z 10014KT 04/02 A3032 RMK A01 T00370023  RH  090%=      5-min Rain = 0
KSB1 112141Z 09012KT 04/02 A3032 RMK A01 T00370023  RH  091%=      5-min Rain = 0
KSB1 112142Z 09012KT 04/02 A3032 RMK A01 T00370023  RH  091%=      5-min Rain = 0.01
KSB1 112143Z 11012KT 04/02 A3032 RMK A01 T00370024  RH  091%=      5-min Rain = 0
KSB1 112144Z 10009KT 04/03 A3032 RMK A01 T00370025  RH  091%=      5-min Rain = 0
KSB1 112145Z 09011KT 04/02 A3032 RMK A01 T00370024  RH  091%=      5-min Rain = 0
KSB1 112146Z 10012KT 04/02 A3032 RMK A01 T00370024  RH  091%=      5-min Rain = 0
KSB1 112147Z 10011KT 04/02 A3032 RMK A01 T00370024  RH  091%=      5-min Rain = 0
KSB1 112148Z 11012KT 04/02 A3032 RMK A01 T00360022  RH  090%=      5-min Rain = 0
KSB1 112149Z 10013KT 04/02 A3032 RMK A01 T00360021  RH  090%=      5-min Rain = 0
KSB1 112150Z 10012KT 04/02 A3032 RMK A01 T00350020  RH  090%=      5-min Rain = 0
KSB1 112151Z 09008KT 04/02 A3032 RMK A01 T00350021  RH  091%=      5-min Rain = 0
KSB1 112152Z 10007KT 04/02 A3032 RMK A01 T00350022  RH  091%=      5-min Rain = 0
KSB1 112153Z 10011KT 04/02 A3032 RMK A01 T00360023  RH  092%=      5-min Rain = 0
KSB1 112154Z 11011KT 04/02 A3032 RMK A01 T00360021  RH  090%=      5-min Rain = 0
KSB1 112155Z 11009KT 04/02 A3032 RMK A01 T00360021  RH  090%=      5-min Rain = 0
KSB1 112156Z 11012KT 04/02 A3032 RMK A01 T00360021  RH  090%=      5-min Rain = 0
KSB1 112157Z 11012KT 04/02 A3032 RMK A01 T00350019  RH  089%=      5-min Rain = 0
KSB1 112158Z 10012KT 04/02 A3032 RMK A01 T00350018  RH  089%=      5-min Rain = 0
KSB1 112159Z 10012KT 04/02 A3032 RMK A01 T00350019  RH  090%=      5-min Rain = 0
KSB1 112200Z 11011KT 03/02 A3032 RMK A01 T00340019  RH  090%=      5-min Rain = 0
KSB1 112201Z 10008KT 04/02 A3032 RMK A01 T00350021  RH  091%=      5-min Rain = 0
KSB1 112202Z 10012KT 04/02 A3032 RMK A01 T00350020  RH  090%=      5-min Rain = 0
KSB1 112203Z 11012KT 03/02 A3032 RMK A01 T00340017  RH  088%=      5-min Rain = 0
KSB1 112204Z 11013KT 03/02 A3033 RMK A01 T00340016  RH  088%=      5-min Rain = 0
KSB1 112205Z 11012KT 03/01 A3033 RMK A01 T00330014  RH  088%=      5-min Rain = 0
KSB1 112206Z 11014KT 03/01 A3033 RMK A01 T00330014  RH  087%=      5-min Rain = 0
KSB1 112207Z 11010KT 03/01 A3033 RMK A01 T00330014  RH  088%=      5-min Rain = 0
KSB1 112208Z 10009KT 03/02 A3033 RMK A01 T00330016  RH  089%=      5-min Rain = 0
KSB1 112209Z 10013KT 03/02 A3033 RMK A01 T00330017  RH  089%=      5-min Rain = 0
KSB1 112210Z 11011KT 03/02 A3033 RMK A01 T00330015  RH  088%=      5-min Rain = 0
KSB1 112211Z 10008KT 03/02 A3033 RMK A01 T00320015  RH  089%=      5-min Rain = 0
KSB1 112212Z 11012KT 03/02 A3033 RMK A01 T00320015  RH  089%=      5-min Rain = 0
KSB1 112213Z 11013KT 03/01 A3033 RMK A01 T00310012  RH  087%=      5-min Rain = 0
KSB1 112214Z 11012KT 03/01 A3033 RMK A01 T00310012  RH  087%=      5-min Rain = 0
KSB1 112215Z 11011KT 03/01 A3033 RMK A01 T00300011  RH  088%=      5-min Rain = 0
KSB1 112216Z 10009KT 03/01 A3033 RMK A01 T00300013  RH  088%=      5-min Rain = 0
KSB1 112217Z 11013KT 03/01 A3033 RMK A01 T00300013  RH  089%=      5-min Rain = 0
KSB1 112218Z 10015KT 03/01 A3033 RMK A01 T00300012  RH  088%=      5-min Rain = 0
KSB1 112219Z 10012KT 03/01 A3033 RMK A01 T00300012  RH  088%=      5-min Rain = 0
KSB1 112220Z 10011KT 03/01 A3033 RMK A01 T00300013  RH  089%=      5-min Rain = 0
KSB1 112221Z 10009KT 03/01 A3033 RMK A01 T00300013  RH  089%=      5-min Rain = 0
KSB1 112222Z 11010KT 03/01 A3033 RMK A01 T00300014  RH  089%=      5-min Rain = 0
KSB1 112223Z 11012KT 03/01 A3033 RMK A01 T00300014  RH  089%=      5-min Rain = 0
KSB1 112224Z 11014KT 03/01 A3033 RMK A01 T00290012  RH  088%=      5-min Rain = 0
KSB1 112225Z 11012KT 03/01 A3033 RMK A01 T00280011  RH  088%=      5-min Rain = 0
KSB1 112226Z 11014KT 03/01 A3033 RMK A01 T00280011  RH  089%=      5-min Rain = 0
KSB1 112227Z 12015KT 03/01 A3033 RMK A01 T00280011  RH  089%=      5-min Rain = 0
KSB1 112228Z 12015KT 03/01 A3033 RMK A01 T00270009  RH  088%=      5-min Rain = 0
KSB1 112229Z 12013G18KT 03/01 A3033 RMK A01 T00270009  RH  088%=      5-min Rain = 0
KSB1 112230Z 12013G18KT 03/01 A3033 RMK A01 T00270009  RH  088%=      5-min Rain = 0
KSB1 112231Z 12012KT 03/01 A3033 RMK A01 T00270009  RH  088%=      5-min Rain = 0
KSB1 112232Z 11014KT 03/01 A3033 RMK A01 T00260008  RH  088%=      5-min Rain = 0
KSB1 112233Z 12015KT 03/01 A3033 RMK A01 T00260008  RH  088%=      5-min Rain = 0
KSB1 112234Z 12015KT 03/01 A3033 RMK A01 T00270007  RH  087%=      5-min Rain = 0
KSB1 112235Z 12015KT 03/01 A3033 RMK A01 T00270006  RH  086%=      5-min Rain = 0
KSB1 112236Z 12018KT 03/00 A3033 RMK A01 T00260004  RH  086%=      5-min Rain = 0
KSB1 112237Z 12016KT 03/00 A3034 RMK A01 T00260003  RH  085%=      5-min Rain = 0
KSB1 112238Z 12015KT 03/00 A3034 RMK A01 T00250002  RH  085%=      5-min Rain = 0
KSB1 112239Z 12015KT 03/00 A3034 RMK A01 T00250002  RH  085%=      5-min Rain = 0
KSB1 112240Z 12014KT 03/00 A3034 RMK A01 T00250002  RH  085%=      5-min Rain = 0
KSB1 112241Z 12014KT 03/00 A3034 RMK A01 T00250002  RH  085%=      5-min Rain = 0
KSB1 112242Z 12011KT 02/00 A3034 RMK A01 T00240001  RH  085%=      5-min Rain = 0
KSB1 112243Z 12013KT 02/00 A3034 RMK A01 T00240002  RH  085%=      5-min Rain = 0
KSB1 112244Z 11012KT 02/00 A3034 RMK A01 T00240001  RH  085%=      5-min Rain = 0
KSB1 112245Z 11011KT 02/00 A3034 RMK A01 T00240001  RH  084%=      5-min Rain = 0
KSB1 112246Z 11012KT 03/00 A3034 RMK A01 T00250001  RH  085%=      5-min Rain = 0
KSB1 112247Z 11012KT 02/00 A3034 RMK A01 T00240001  RH  084%=      5-min Rain = 0
KSB1 112248Z 11013G18KT 02/00 A3034 RMK A01 T00240001  RH  085%=      5-min Rain = 0
KSB1 112249Z 12013G18KT 02/00 A3034 RMK A01 T002400-0  RH  084%=      5-min Rain = 0
KSB1 112250Z 12014KT 02/00 A3034 RMK A01 T002300-0  RH  084%=      5-min Rain = 0
KSB1 112251Z 12014KT 02/M00 A3034 RMK A01 T00231001  RH  084%=      5-min Rain = 0
KSB1 112252Z 11011KT 02/00 A3034 RMK A01 T002300-0  RH  085%=      5-min Rain = 0
KSB1 112253Z 11013KT 02/00 A3034 RMK A01 T00230001  RH  085%=      5-min Rain = 0
KSB1 112254Z 11015KT 02/00 A3034 RMK A01 T002300-0  RH  085%=      5-min Rain = 0
KSB1 112255Z 12015KT 02/M00 A3034 RMK A01 T00231001  RH  084%=      5-min Rain = 0
KSB1 112256Z 12015KT 02/M00 A3034 RMK A01 T00231001  RH  084%=      5-min Rain = 0
KSB1 112257Z 12016KT 02/M00 A3034 RMK A01 T00221002  RH  084%=      5-min Rain = 0
KSB1 112258Z 12015KT 02/M00 A3034 RMK A01 T00221002  RH  084%=      5-min Rain = 0
KSB1 112259Z 12012KT 02/M00 A3034 RMK A01 T00231002  RH  084%=      5-min Rain = 0
KSB1 112300Z 12014KT 02/M00 A3034 RMK A01 T00221001  RH  084%=      5-min Rain = 0
KSB1 112301Z 12014KT 02/M00 A3034 RMK A01 T00221002  RH  084%=      5-min Rain = 0
KSB1 112302Z 12015KT 02/M00 A3034 RMK A01 T00221003  RH  083%=      5-min Rain = 0
KSB1 112303Z 12012KT 02/M00 A3034 RMK A01 T00221004  RH  083%=      5-min Rain = 0
KSB1 112304Z 12014KT 02/M00 A3034 RMK A01 T00221003  RH  084%=      5-min Rain = 0
KSB1 112305Z 12011KT 02/M00 A3034 RMK A01 T00221004  RH  083%=      5-min Rain = 0
KSB1 112306Z 11011KT 02/M00 A3034 RMK A01 T00221003  RH  084%=      5-min Rain = 0
KSB1 112307Z 12012KT 02/M00 A3034 RMK A01 T00221002  RH  084%=      5-min Rain = 0
KSB1 112308Z 12014KT 02/M00 A3034 RMK A01 T00221002  RH  084%=      5-min Rain = 0
KSB1 112309Z 12014KT 02/M00 A3034 RMK A01 T00221003  RH  084%=      5-min Rain = 0
KSB1 112310Z 11011KT 02/M00 A3034 RMK A01 T00211003  RH  084%=      5-min Rain = 0
KSB1 112311Z 11011G16KT 02/M00 A3034 RMK A01 T00211002  RH  085%=      5-min Rain = 0
KSB1 112312Z 12017KT 02/M00 A3034 RMK A01 T00221002  RH  085%=      5-min Rain = 0
KSB1 112313Z 12014KT 02/M00 A3034 RMK A01 T00221002  RH  084%=      5-min Rain = 0
KSB1 112314Z 12012KT 02/M00 A3034 RMK A01 T00211002  RH  085%=      5-min Rain = 0
KSB1 112315Z 12014KT 02/M00 A3034 RMK A01 T00221002  RH  085%=      5-min Rain = 0
KSB1 112316Z 12014KT 02/M00 A3034 RMK A01 T00211002  RH  084%=      5-min Rain = 0
KSB1 112317Z 11014KT 02/M00 A3035 RMK A01 T00211003  RH  084%=      5-min Rain = 0
KSB1 112318Z 12015KT 02/M00 A3035 RMK A01 T00211004  RH  084%=      5-min Rain = 0
KSB1 112319Z 12016KT 02/M01 A3035 RMK A01 T00201005  RH  083%=      5-min Rain = 0
KSB1 112320Z 11014KT 02/M01 A3035 RMK A01 T00191006  RH  083%=      5-min Rain = 0
KSB1 112321Z 11015KT 02/M01 A3035 RMK A01 T00191006  RH  084%=      5-min Rain = 0
KSB1 112322Z 12014KT 02/M01 A3035 RMK A01 T00191006  RH  084%=      5-min Rain = 0
KSB1 112323Z 12015KT 02/M01 A3035 RMK A01 T00191006  RH  083%=      5-min Rain = 0
KSB1 112324Z 11013KT 02/M01 A3035 RMK A01 T00191006  RH  084%=      5-min Rain = 0
KSB1 112325Z 11017KT 02/M01 A3035 RMK A01 T00191006  RH  084%=      5-min Rain = 0
KSB1 112326Z 11015KT 02/M01 A3034 RMK A01 T00191007  RH  083%=      5-min Rain = 0
KSB1 112327Z 12013KT 02/M01 A3034 RMK A01 T00191006  RH  083%=      5-min Rain = 0
KSB1 112328Z 12016KT 02/M01 A3034 RMK A01 T00191006  RH  084%=      5-min Rain = 0
KSB1 112329Z 11016KT 02/M01 A3034 RMK A01 T00181007  RH  083%=      5-min Rain = 0
KSB1 112330Z 11018KT 02/M01 A3034 RMK A01 T00181008  RH  083%=      5-min Rain = 0
KSB1 112331Z 11016KT 02/M01 A3034 RMK A01 T00181008  RH  083%=      5-min Rain = 0
KSB1 112332Z 11016KT 02/M01 A3034 RMK A01 T00171009  RH  083%=      5-min Rain = 0
KSB1 112333Z 12017KT 02/M01 A3034 RMK A01 T00181008  RH  083%=      5-min Rain = 0
KSB1 112334Z 11016KT 02/M01 A3034 RMK A01 T00171008  RH  083%=      5-min Rain = 0
KSB1 112335Z 12014KT 02/M01 A3034 RMK A01 T00171009  RH  083%=      5-min Rain = 0
KSB1 112336Z 11015G20KT 02/M01 A3034 RMK A01 T00171008  RH  083%=      5-min Rain = 0
KSB1 112337Z 12015KT 02/M01 A3035 RMK A01 T00171008  RH  083%=      5-min Rain = 0
KSB1 112338Z 12016KT 02/M01 A3035 RMK A01 T00171008  RH  083%=      5-min Rain = 0
KSB1 112339Z 12015KT 02/M01 A3035 RMK A01 T00171009  RH  083%=      5-min Rain = 0
KSB1 112340Z 12014G19KT 02/M01 A3035 RMK A01 T00171008  RH  083%=      5-min Rain = 0
KSB1 112341Z 12017KT 02/M01 A3035 RMK A01 T00171008  RH  083%=      5-min Rain = 0
KSB1 112342Z 11012KT 02/M01 A3035 RMK A01 T00171009  RH  083%=      5-min Rain = 0
KSB1 112343Z 11016KT 02/M01 A3035 RMK A01 T00171008  RH  083%=      5-min Rain = 0
KSB1 112344Z 11015KT 02/M01 A3035 RMK A01 T00171009  RH  083%=      5-min Rain = 0
KSB1 112345Z 11015KT 02/M01 A3035 RMK A01 T00171009  RH  083%=      5-min Rain = 0
KSB1 112346Z 11017KT 02/M01 A3035 RMK A01 T00171010  RH  083%=      5-min Rain = 0
KSB1 112347Z 11014KT 02/M01 A3035 RMK A01 T00171010  RH  082%=      5-min Rain = 0
KSB1 112348Z 11015KT 02/M01 A3035 RMK A01 T00171010  RH  083%=      5-min Rain = 0
KSB1 112349Z 11016KT 02/M01 A3035 RMK A01 T00171010  RH  082%=      5-min Rain = 0
KSB1 112350Z 11016KT 02/M01 A3035 RMK A01 T00161011  RH  082%=      5-min Rain = 0
KSB1 112351Z 11017G22KT 02/M01 A3035 RMK A01 T00161012  RH  082%=      5-min Rain = 0
KSB1 112352Z 12017KT 02/M01 A3035 RMK A01 T00161012  RH  082%=      5-min Rain = 0
KSB1 112353Z 11015G21KT 02/M01 A3035 RMK A01 T00161012  RH  082%=      5-min Rain = 0
KSB1 112354Z 11015KT 02/M01 A3035 RMK A01 T00161012  RH  082%=      5-min Rain = 0
KSB1 112355Z 12015KT 02/M01 A3035 RMK A01 T00161012  RH  082%=      5-min Rain = 0
KSB1 112356Z 12016KT 02/M01 A3036 RMK A01 T00161013  RH  082%=      5-min Rain = 0
KSB1 112357Z 12016KT 02/M01 A3036 RMK A01 T00151013  RH  081%=      5-min Rain = 0
KSB1 112358Z 12016KT 02/M01 A3036 RMK A01 T00161013  RH  081%=      5-min Rain = 0
KSB1 112359Z 11014KT 02/M01 A3036 RMK A01 T00161014  RH  081%=      5-min Rain = 0
KSB1 120000Z 12014KT 02/M01 A3036 RMK A01 T00161014  RH  081%=      5-min Rain = 0
KSB1 120001Z 12015KT 02/M01 A3036 RMK A01 T00161013  RH  081%=      5-min Rain = 0
KSB1 120002Z 12014KT 02/M01 A3036 RMK A01 T00151014  RH  081%=      5-min Rain = 0
KSB1 120003Z 12017KT 02/M01 A3036 RMK A01 T00161014  RH  081%=      5-min Rain = 0
KSB1 120004Z 11013G18KT 02/M02 A3036 RMK A01 T00151015  RH  080%=      5-min Rain = 0
KSB1 120005Z 11014KT 02/M01 A3036 RMK A01 T00161014  RH  081%=      5-min Rain = 0
KSB1 120006Z 11014G20KT 02/M01 A3036 RMK A01 T00161014  RH  080%=      5-min Rain = 0
KSB1 120007Z 11015KT 02/M02 A3036 RMK A01 T00161015  RH  080%=      5-min Rain = 0
KSB1 120008Z 11013KT 02/M02 A3036 RMK A01 T00161015  RH  080%=      5-min Rain = 0
KSB1 120009Z 11012KT 02/M02 A3036 RMK A01 T00161015  RH  080%=      5-min Rain = 0
KSB1 120010Z 11016KT 02/M02 A3036 RMK A01 T00161016  RH  080%=      5-min Rain = 0
KSB1 120011Z 11016KT 02/M02 A3036 RMK A01 T00161016  RH  079%=      5-min Rain = 0
KSB1 120012Z 12016KT 02/M02 A3036 RMK A01 T00161017  RH  079%=      5-min Rain = 0
KSB1 120013Z 11016KT 02/M02 A3036 RMK A01 T00151018  RH  079%=      5-min Rain = 0
KSB1 120014Z 11017KT 02/M02 A3036 RMK A01 T00151018  RH  079%=      5-min Rain = 0
KSB1 120015Z 11015KT 02/M02 A3036 RMK A01 T00151019  RH  078%=      5-min Rain = 0
KSB1 120016Z 11014KT 01/M02 A3036 RMK A01 T00141019  RH  079%=      5-min Rain = 0
KSB1 120017Z 11014KT 02/M02 A3036 RMK A01 T00151018  RH  079%=      5-min Rain = 0
KSB1 120018Z 11013KT 02/M02 A3036 RMK A01 T00151018  RH  079%=      5-min Rain = 0
KSB1 120019Z 11016KT 02/M02 A3036 RMK A01 T00151018  RH  079%=      5-min Rain = 0
KSB1 120020Z 11014KT 02/M02 A3036 RMK A01 T00151018  RH  079%=      5-min Rain = 0
KSB1 120021Z 11016KT 02/M02 A3036 RMK A01 T00151018  RH  079%=      5-min Rain = 0
KSB1 120022Z 10018KT 02/M02 A3036 RMK A01 T00151019  RH  078%=      5-min Rain = 0
KSB1 120023Z 10015KT 02/M02 A3036 RMK A01 T00151020  RH  078%=      5-min Rain = 0
KSB1 120024Z 11015KT 02/M02 A3036 RMK A01 T00151020  RH  078%=      5-min Rain = 0
KSB1 120025Z 11012KT 02/M02 A3036 RMK A01 T00151019  RH  078%=      5-min Rain = 0
KSB1 120026Z 11016KT 01/M02 A3037 RMK A01 T00141020  RH  078%=      5-min Rain = 0
KSB1 120027Z 11013KT 01/M02 A3037 RMK A01 T00141020  RH  078%=      5-min Rain = 0
KSB1 120028Z 11012KT 02/M02 A3037 RMK A01 T00151020  RH  078%=      5-min Rain = 0
KSB1 120029Z 11012KT 02/M02 A3037 RMK A01 T00151019  RH  078%=      5-min Rain = 0
KSB1 120030Z 11015KT 02/M02 A3037 RMK A01 T00151019  RH  078%=      5-min Rain = 0
KSB1 120031Z 11014KT 02/M02 A3037 RMK A01 T00151020  RH  078%=      5-min Rain = 0
KSB1 120032Z 11011KT 02/M02 A3037 RMK A01 T00151020  RH  078%=      5-min Rain = 0
KSB1 120033Z 10012KT 02/M02 A3037 RMK A01 T00151019  RH  078%=      5-min Rain = 0
KSB1 120034Z 10011KT 02/M02 A3037 RMK A01 T00151020  RH  078%=      5-min Rain = 0
KSB1 120035Z 11012KT 02/M02 A3037 RMK A01 T00151019  RH  078%=      5-min Rain = 0
KSB1 120036Z 11013KT 02/M02 A3037 RMK A01 T00151019  RH  078%=      5-min Rain = 0
KSB1 120037Z 11016KT 02/M02 A3037 RMK A01 T00151020  RH  078%=      5-min Rain = 0
KSB1 120038Z 11013KT 02/M02 A3037 RMK A01 T00151021  RH  077%=      5-min Rain = 0
KSB1 120039Z 11014KT 02/M02 A3037 RMK A01 T00151020  RH  077%=      5-min Rain = 0
KSB1 120040Z 11012KT 02/M02 A3037 RMK A01 T00151020  RH  077%=      5-min Rain = 0
KSB1 120041Z 11014KT 02/M02 A3037 RMK A01 T00161020  RH  077%=      5-min Rain = 0
KSB1 120042Z 11015KT 02/M02 A3037 RMK A01 T00161020  RH  077%=      5-min Rain = 0
KSB1 120043Z 11015KT 02/M02 A3037 RMK A01 T00161020  RH  077%=      5-min Rain = 0
KSB1 120044Z 11014KT 02/M02 A3037 RMK A01 T00151020  RH  077%=      5-min Rain = 0
KSB1 120045Z 11014KT 02/M02 A3037 RMK A01 T00151020  RH  077%=      5-min Rain = 0
KSB1 120046Z 11015KT 02/M02 A3037 RMK A01 T00151021  RH  077%=      5-min Rain = 0
KSB1 120047Z 11012KT 02/M02 A3037 RMK A01 T00151021  RH  077%=      5-min Rain = 0
KSB1 120048Z 11013KT 02/M02 A3037 RMK A01 T00151021  RH  077%=      5-min Rain = 0
KSB1 120049Z 10013KT 02/M02 A3037 RMK A01 T00151021  RH  077%=      5-min Rain = 0
KSB1 120050Z 11014KT 02/M02 A3037 RMK A01 T00151022  RH  077%=      5-min Rain = 0
KSB1 120051Z 11013KT 02/M02 A3037 RMK A01 T00151022  RH  077%=      5-min Rain = 0
KSB1 120052Z 11013KT 02/M02 A3037 RMK A01 T00151021  RH  077%=      5-min Rain = 0
KSB1 120053Z 11011KT 02/M02 A3037 RMK A01 T00151021  RH  077%=      5-min Rain = 0
KSB1 120054Z 10008KT 02/M02 A3037 RMK A01 T00151021  RH  077%=      5-min Rain = 0
KSB1 120055Z 11011KT 02/M02 A3038 RMK A01 T00151021  RH  077%=      5-min Rain = 0
KSB1 120056Z 11013KT 02/M02 A3038 RMK A01 T00151021  RH  077%=      5-min Rain = 0
KSB1 120057Z 11013KT 02/M02 A3038 RMK A01 T00151022  RH  077%=      5-min Rain = 0
KSB1 120058Z 11013KT 02/M02 A3038 RMK A01 T00151021  RH  077%=      5-min Rain = 0
KSB1 120059Z 12014KT 02/M02 A3038 RMK A01 T00151022  RH  077%=      5-min Rain = 0
KSB1 120100Z 11015KT 02/M02 A3038 RMK A01 T00151022  RH  076%=      5-min Rain = 0
KSB1 120101Z 10015KT 01/M02 A3038 RMK A01 T00141023  RH  076%=      5-min Rain = 0
KSB1 120102Z 10014KT 01/M02 A3038 RMK A01 T00141023  RH  076%=      5-min Rain = 0
KSB1 120103Z 11016KT 01/M02 A3038 RMK A01 T00141023  RH  077%=      5-min Rain = 0
KSB1 120104Z 10012KT 01/M02 A3039 RMK A01 T00141023  RH  076%=      5-min Rain = 0
KSB1 120105Z 10012KT 01/M02 A3039 RMK A01 T00141022  RH  077%=      5-min Rain = 0
KSB1 120106Z 10012KT 01/M02 A3039 RMK A01 T00141023  RH  076%=      5-min Rain = 0
KSB1 120107Z 10011KT 01/M02 A3039 RMK A01 T00141023  RH  076%=      5-min Rain = 0
KSB1 120108Z 09011KT 01/M02 A3039 RMK A01 T00141023  RH  076%=      5-min Rain = 0
KSB1 120109Z 11011G17KT 01/M02 A3039 RMK A01 T00141023  RH  076%=      5-min Rain = 0
KSB1 120110Z 11013KT 01/M02 A3039 RMK A01 T00141023  RH  076%=      5-min Rain = 0
KSB1 120111Z 11013KT 01/M02 A3039 RMK A01 T00141024  RH  076%=      5-min Rain = 0
KSB1 120112Z 10011KT 01/M02 A3039 RMK A01 T00141024  RH  076%=      5-min Rain = 0
KSB1 120113Z 10013KT 01/M02 A3039 RMK A01 T00141024  RH  076%=      5-min Rain = 0
KSB1 120114Z 10013KT 01/M02 A3039 RMK A01 T00141024  RH  076%=      5-min Rain = 0
KSB1 120115Z 11013KT 01/M03 A3039 RMK A01 T00131025  RH  075%=      5-min Rain = 0
KSB1 120116Z 11014KT 01/M03 A3039 RMK A01 T00131026  RH  075%=      5-min Rain = 0
KSB1 120117Z 10014KT 01/M03 A3039 RMK A01 T00131026  RH  076%=      5-min Rain = 0
KSB1 120118Z 11013KT 01/M03 A3039 RMK A01 T00131026  RH  075%=      5-min Rain = 0
KSB1 120119Z 11013KT 01/M03 A3039 RMK A01 T00131026  RH  075%=      5-min Rain = 0
KSB1 120120Z 11014KT 01/M03 A3039 RMK A01 T00131026  RH  075%=      5-min Rain = 0
KSB1 120121Z 11013KT 01/M03 A3039 RMK A01 T00121027  RH  075%=      5-min Rain = 0
KSB1 120122Z 10012KT 01/M03 A304 RMK A01 T00121028  RH  075%=      5-min Rain = 0
KSB1 120123Z 11013KT 01/M03 A304 RMK A01 T00121028  RH  075%=      5-min Rain = 0
KSB1 120124Z 11014KT 01/M03 A304 RMK A01 T00121027  RH  075%=      5-min Rain = 0
KSB1 120125Z 11012KT 01/M03 A304 RMK A01 T00121028  RH  075%=      5-min Rain = 0
KSB1 120126Z 11011KT 01/M03 A304 RMK A01 T00121028  RH  075%=      5-min Rain = 0
KSB1 120127Z 11012KT 01/M03 A3041 RMK A01 T00121028  RH  075%=      5-min Rain = 0
KSB1 120128Z 11011G16KT 01/M03 A3041 RMK A01 T00121028  RH  075%=      5-min Rain = 0
KSB1 120129Z 11013KT 01/M03 A3041 RMK A01 T00111029  RH  075%=      5-min Rain = 0
KSB1 120130Z 10011KT 01/M03 A3041 RMK A01 T00111029  RH  074%=      5-min Rain = 0
KSB1 120131Z 10009KT 01/M03 A3041 RMK A01 T00121028  RH  075%=      5-min Rain = 0
KSB1 120132Z 09009KT 01/M03 A3041 RMK A01 T00111028  RH  075%=      5-min Rain = 0
KSB1 120133Z 10010KT 01/M03 A3041 RMK A01 T00121028  RH  075%=      5-min Rain = 0
KSB1 120134Z 10011KT 01/M03 A3041 RMK A01 T00111028  RH  075%=      5-min Rain = 0
KSB1 120135Z 10010KT 01/M03 A3041 RMK A01 T00121027  RH  075%=      5-min Rain = 0
KSB1 120136Z 10013KT 01/M03 A3041 RMK A01 T00121028  RH  075%=      5-min Rain = 0
KSB1 120137Z 10013KT 01/M03 A3041 RMK A01 T00111030  RH  074%=      5-min Rain = 0
KSB1 120138Z 10011KT 01/M03 A3041 RMK A01 T00111030  RH  074%=      5-min Rain = 0
KSB1 120139Z 10011KT 01/M03 A3041 RMK A01 T00111029  RH  075%=      5-min Rain = 0
KSB1 120140Z 10010KT 01/M03 A3041 RMK A01 T00111029  RH  075%=      5-min Rain = 0
KSB1 120141Z 10010KT 01/M03 A3041 RMK A01 T00111029  RH  075%=      5-min Rain = 0
KSB1 120142Z 11011KT 01/M03 A3041 RMK A01 T00111029  RH  075%=      5-min Rain = 0
KSB1 120143Z 11012G17KT 01/M03 A3041 RMK A01 T00101029  RH  075%=      5-min Rain = 0
KSB1 120144Z 11015KT 01/M03 A3041 RMK A01 T00111029  RH  075%=      5-min Rain = 0
KSB1 120145Z 10014KT 01/M03 A3041 RMK A01 T00111030  RH  074%=      5-min Rain = 0
KSB1 120146Z 09011KT 01/M03 A3041 RMK A01 T00111030  RH  074%=      5-min Rain = 0
KSB1 120147Z 09007KT 01/M03 A3041 RMK A01 T00111029  RH  074%=      5-min Rain = 0
KSB1 120148Z 09010KT 01/M03 A3041 RMK A01 T00111029  RH  075%=      5-min Rain = 0
KSB1 120149Z 10014KT 01/M03 A3041 RMK A01 T00111029  RH  075%=      5-min Rain = 0
KSB1 120150Z 10014KT 01/M03 A3041 RMK A01 T00101030  RH  074%=      5-min Rain = 0
KSB1 120151Z 09012KT 01/M03 A3041 RMK A01 T00101031  RH  074%=      5-min Rain = 0
KSB1 120152Z 09011KT 01/M03 A3041 RMK A01 T00101030  RH  074%=      5-min Rain = 0
KSB1 120153Z 10012KT 01/M03 A3041 RMK A01 T00101030  RH  074%=      5-min Rain = 0
KSB1 120154Z 11009KT 01/M03 A3041 RMK A01 T00101030  RH  074%=      5-min Rain = 0
KSB1 120155Z 10010KT 01/M03 A3041 RMK A01 T00091030  RH  075%=      5-min Rain = 0
KSB1 120156Z 11014KT 01/M03 A3041 RMK A01 T00101029  RH  075%=      5-min Rain = 0
KSB1 120157Z 10012KT 01/M03 A3041 RMK A01 T00101030  RH  074%=      5-min Rain = 0
KSB1 120158Z 10012KT 01/M03 A3041 RMK A01 T00101030  RH  075%=      5-min Rain = 0
KSB1 120159Z 10012KT 01/M03 A3041 RMK A01 T00101030  RH  075%=      5-min Rain = 0
KSB1 120200Z 11012KT 01/M03 A3041 RMK A01 T00101029  RH  075%=      5-min Rain = 0
KSB1 120201Z 11014KT 01/M03 A3041 RMK A01 T00101030  RH  075%=      5-min Rain = 0
KSB1 120202Z 11012KT 01/M03 A3041 RMK A01 T00091031  RH  075%=      5-min Rain = 0
KSB1 120203Z 10010KT 01/M03 A3041 RMK A01 T00091030  RH  075%=      5-min Rain = 0
KSB1 120204Z 10010KT 01/M03 A3041 RMK A01 T00091030  RH  075%=      5-min Rain = 0
KSB1 120205Z 09009KT 01/M03 A3042 RMK A01 T00091030  RH  075%=      5-min Rain = 0
KSB1 120206Z 08011KT 01/M03 A3042 RMK A01 T00091030  RH  075%=      5-min Rain = 0
KSB1 120207Z 08008KT 01/M03 A3042 RMK A01 T00091030  RH  075%=      5-min Rain = 0
KSB1 120208Z 07007KT 01/M03 A3042 RMK A01 T00091029  RH  076%=      5-min Rain = 0
KSB1 120209Z 07008KT 01/M03 A3042 RMK A01 T00101029  RH  075%=      5-min Rain = 0
KSB1 120210Z 06007KT 01/M03 A3042 RMK A01 T00101029  RH  075%=      5-min Rain = 0
KSB1 120211Z 07007KT 01/M03 A3043 RMK A01 T00101029  RH  075%=      5-min Rain = 0
KSB1 120212Z 07008KT 01/M03 A3043 RMK A01 T00101029  RH  075%=      5-min Rain = 0
KSB1 120213Z 07007KT 01/M03 A3042 RMK A01 T00101029  RH  075%=      5-min Rain = 0
KSB1 120214Z 06009KT 01/M03 A3042 RMK A01 T00101030  RH  075%=      5-min Rain = 0
KSB1 120215Z 06009KT 01/M03 A3042 RMK A01 T00101030  RH  075%=      5-min Rain = 0
KSB1 120216Z 08007KT 01/M03 A3042 RMK A01 T00101030  RH  074%=      5-min Rain = 0
KSB1 120217Z 08006KT 01/M03 A3042 RMK A01 T00101030  RH  074%=      5-min Rain = 0
KSB1 120218Z 09005KT 01/M03 A3042 RMK A01 T00101030  RH  074%=      5-min Rain = 0
KSB1 120219Z 10007KT 01/M03 A3042 RMK A01 T00101030  RH  074%=      5-min Rain = 0
KSB1 120220Z 10008KT 01/M03 A3042 RMK A01 T00101030  RH  075%=      5-min Rain = 0
KSB1 120221Z 10007KT 01/M03 A3042 RMK A01 T00111029  RH  075%=      5-min Rain = 0
KSB1 120222Z 09007KT 01/M03 A3042 RMK A01 T00111029  RH  074%=      5-min Rain = 0
KSB1 120223Z 10006KT 01/M03 A3042 RMK A01 T00111030  RH  074%=      5-min Rain = 0
KSB1 120224Z 10007KT 01/M03 A3042 RMK A01 T00111029  RH  074%=      5-min Rain = 0
KSB1 120225Z 09006KT 01/M03 A3042 RMK A01 T00111028  RH  075%=      5-min Rain = 0
KSB1 120226Z 09009KT 01/M03 A3042 RMK A01 T00121027  RH  075%=      5-min Rain = 0
KSB1 120227Z 10007KT 01/M03 A3042 RMK A01 T00121027  RH  075%=      5-min Rain = 0
KSB1 120228Z 10007KT 01/M03 A3042 RMK A01 T00121028  RH  075%=      5-min Rain = 0
KSB1 120229Z 10005KT 01/M03 A3042 RMK A01 T00111029  RH  075%=      5-min Rain = 0
KSB1 120230Z 11009KT 01/M03 A3043 RMK A01 T00111028  RH  075%=      5-min Rain = 0
KSB1 120231Z 09009KT 01/M03 A3043 RMK A01 T00111030  RH  074%=      5-min Rain = 0
KSB1 120232Z 08008KT 01/M03 A3043 RMK A01 T00101031  RH  074%=      5-min Rain = 0
KSB1 120233Z 10006KT 01/M03 A3044 RMK A01 T00101030  RH  074%=      5-min Rain = 0
KSB1 120234Z 11010KT 01/M03 A3044 RMK A01 T00101030  RH  075%=      5-min Rain = 0
KSB1 120235Z 11011KT 01/M03 A3044 RMK A01 T00091031  RH  074%=      5-min Rain = 0
KSB1 120236Z 10012KT 01/M03 A3043 RMK A01 T00091031  RH  075%=      5-min Rain = 0
KSB1 120237Z 11012KT 01/M03 A3043 RMK A01 T00091030  RH  075%=      5-min Rain = 0
KSB1 120238Z 11009KT 01/M03 A3043 RMK A01 T00091031  RH  075%=      5-min Rain = 0
KSB1 120239Z 11010KT 01/M03 A3043 RMK A01 T00081031  RH  075%=      5-min Rain = 0
KSB1 120240Z 11011KT 01/M03 A3044 RMK A01 T00081031  RH  075%=      5-min Rain = 0
KSB1 120241Z 11012KT 01/M03 A3044 RMK A01 T00071032  RH  075%=      5-min Rain = 0
KSB1 120242Z 10011KT 01/M03 A3044 RMK A01 T00071033  RH  075%=      5-min Rain = 0
KSB1 120243Z 11012G17KT 01/M03 A3044 RMK A01 T00071033  RH  075%=      5-min Rain = 0
KSB1 120244Z 11013KT 01/M03 A3044 RMK A01 T00071033  RH  075%=      5-min Rain = 0
KSB1 120245Z 11013KT 01/M03 A3044 RMK A01 T00071033  RH  075%=      5-min Rain = 0
KSB1 120246Z 11011KT 01/M03 A3044 RMK A01 T00071033  RH  075%=      5-min Rain = 0
KSB1 120247Z 11013KT 01/M03 A3044 RMK A01 T00061034  RH  075%=      5-min Rain = 0
KSB1 120248Z 11011KT 01/M03 A3044 RMK A01 T00061034  RH  075%=      5-min Rain = 0
KSB1 120249Z 10012KT 01/M03 A3044 RMK A01 T00061033  RH  075%=      5-min Rain = 0
KSB1 120250Z 11010KT 01/M03 A3044 RMK A01 T00061033  RH  075%=      5-min Rain = 0
KSB1 120251Z 11011KT 01/M03 A3044 RMK A01 T00061033  RH  075%=      5-min Rain = 0
KSB1 120252Z 11013KT 01/M03 A3045 RMK A01 T00061034  RH  074%=      5-min Rain = 0
KSB1 120253Z 11013KT 01/M04 A3045 RMK A01 T00061035  RH  074%=      5-min Rain = 0
KSB1 120254Z 10011KT 01/M04 A3044 RMK A01 T00061035  RH  074%=      5-min Rain = 0
KSB1 120255Z 10012KT 01/M04 A3044 RMK A01 T00061035  RH  074%=      5-min Rain = 0
KSB1 120256Z 10012KT 01/M04 A3044 RMK A01 T00051035  RH  074%=      5-min Rain = 0
KSB1 120257Z 10013KT 01/M04 A3044 RMK A01 T00061035  RH  074%=      5-min Rain = 0
KSB1 120258Z 11012KT 01/M04 A3044 RMK A01 T00051035  RH  074%=      5-min Rain = 0
KSB1 120259Z 11012KT 01/M03 A3044 RMK A01 T00061034  RH  074%=      5-min Rain = 0
KSB1 120300Z 11011KT 01/M04 A3044 RMK A01 T00051035  RH  074%=      5-min Rain = 0
KSB1 120301Z 11011KT 01/M04 A3044 RMK A01 T00061035  RH  074%=      5-min Rain = 0
KSB1 120302Z 11010KT 01/M04 A3044 RMK A01 T00051035  RH  075%=      5-min Rain = 0
KSB1 120303Z 10011KT 01/M03 A3045 RMK A01 T00051034  RH  075%=      5-min Rain = 0
KSB1 120304Z 09010KT 01/M03 A3045 RMK A01 T00061034  RH  075%=      5-min Rain = 0
KSB1 120305Z 10008KT 01/M03 A3045 RMK A01 T00061034  RH  075%=      5-min Rain = 0
KSB1 120306Z 10009KT 01/M03 A3045 RMK A01 T00061033  RH  075%=      5-min Rain = 0
KSB1 120307Z 10008KT 01/M03 A3044 RMK A01 T00061034  RH  075%=      5-min Rain = 0
KSB1 120308Z 11010KT 01/M03 A3044 RMK A01 T00061033  RH  075%=      5-min Rain = 0
KSB1 120309Z 10012KT 01/M03 A3044 RMK A01 T00071032  RH  075%=      5-min Rain = 0
KSB1 120310Z 10010KT 01/M03 A3044 RMK A01 T00071033  RH  075%=      5-min Rain = 0
KSB1 120311Z 10008KT 01/M03 A3044 RMK A01 T00071034  RH  074%=      5-min Rain = 0
KSB1 120312Z 10009KT 01/M03 A3044 RMK A01 T00071034  RH  074%=      5-min Rain = 0
KSB1 120313Z 10010KT 01/M03 A3044 RMK A01 T00071033  RH  074%=      5-min Rain = 0
KSB1 120314Z 10008KT 01/M03 A3045 RMK A01 T00071033  RH  075%=      5-min Rain = 0
KSB1 120315Z 11008KT 01/M03 A3045 RMK A01 T00081032  RH  075%=      5-min Rain = 0
KSB1 120316Z 12010KT 01/M03 A3045 RMK A01 T00081032  RH  075%=      5-min Rain = 0
KSB1 120317Z 11011KT 01/M03 A3045 RMK A01 T00081032  RH  075%=      5-min Rain = 0
KSB1 120318Z 11011KT 01/M03 A3045 RMK A01 T00081032  RH  075%=      5-min Rain = 0
KSB1 120319Z 10009KT 01/M03 A3045 RMK A01 T00081032  RH  075%=      5-min Rain = 0
KSB1 120320Z 11009G14KT 01/M03 A3045 RMK A01 T00081033  RH  074%=      5-min Rain = 0
KSB1 120321Z 12011KT 01/M03 A3045 RMK A01 T00071034  RH  074%=      5-min Rain = 0
KSB1 120322Z 11012KT 01/M04 A3045 RMK A01 T00061035  RH  074%=      5-min Rain = 0
KSB1 120323Z 11010KT 01/M03 A3045 RMK A01 T00061034  RH  074%=      5-min Rain = 0
KSB1 120324Z 11012KT 01/M04 A3045 RMK A01 T00061035  RH  074%=      5-min Rain = 0
KSB1 120325Z 10011KT 01/M04 A3045 RMK A01 T00051035  RH  074%=      5-min Rain = 0
KSB1 120326Z 11013KT 01/M04 A3045 RMK A01 T00051035  RH  075%=      5-min Rain = 0
KSB1 120327Z 11014KT 00/M04 A3045 RMK A01 T00041036  RH  074%=      5-min Rain = 0
KSB1 120328Z 11013KT 00/M04 A3045 RMK A01 T00041036  RH  075%=      5-min Rain = 0
KSB1 120329Z 11012KT 00/M04 A3045 RMK A01 T00041036  RH  075%=      5-min Rain = 0
KSB1 120330Z 12012G17KT 00/M04 A3045 RMK A01 T00041036  RH  075%=      5-min Rain = 0
KSB1 120331Z 11013KT 00/M04 A3045 RMK A01 T00031036  RH  075%=      5-min Rain = 0
KSB1 120332Z 11013KT 00/M04 A3045 RMK A01 T00031036  RH  075%=      5-min Rain = 0
KSB1 120333Z 11013KT 00/M04 A3045 RMK A01 T00031036  RH  075%=      5-min Rain = 0
KSB1 120334Z 12010KT 00/M04 A3046 RMK A01 T00031036  RH  075%=      5-min Rain = 0
KSB1 120335Z 11010KT 00/M04 A3046 RMK A01 T00041036  RH  075%=      5-min Rain = 0
KSB1 120336Z 11011KT 00/M04 A3046 RMK A01 T00041036  RH  075%=      5-min Rain = 0
KSB1 120337Z 11013KT 00/M04 A3046 RMK A01 T00031036  RH  075%=      5-min Rain = 0
KSB1 120338Z 11012KT 00/M04 A3046 RMK A01 T00031036  RH  075%=      5-min Rain = 0
KSB1 120339Z 11013KT 00/M04 A3046 RMK A01 T00031036  RH  075%=      5-min Rain = 0
KSB1 120340Z 11014KT 00/M04 A3046 RMK A01 T00031036  RH  075%=      5-min Rain = 0
KSB1 120341Z 11012KT 00/M04 A3046 RMK A01 T00031036  RH  075%=      5-min Rain = 0
KSB1 120342Z 11010KT 00/M04 A3046 RMK A01 T00031036  RH  075%=      5-min Rain = 0
KSB1 120343Z 10013KT 00/M04 A3046 RMK A01 T00041035  RH  075%=      5-min Rain = 0
KSB1 120344Z 11015KT 00/M04 A3046 RMK A01 T00041036  RH  075%=      5-min Rain = 0
KSB1 120345Z 11015KT 00/M04 A3046 RMK A01 T00041037  RH  074%=      5-min Rain = 0
KSB1 120346Z 11012G17KT 00/M04 A3046 RMK A01 T00031037  RH  075%=      5-min Rain = 0
KSB1 120347Z 11014KT 00/M04 A3046 RMK A01 T00031037  RH  075%=      5-min Rain = 0
KSB1 120348Z 11013KT 00/M04 A3046 RMK A01 T00021037  RH  075%=      5-min Rain = 0
KSB1 120349Z 11016KT 00/M04 A3046 RMK A01 T00021037  RH  075%=      5-min Rain = 0
KSB1 120350Z 12015KT 00/M04 A3046 RMK A01 T00021037  RH  075%=      5-min Rain = 0
KSB1 120351Z 11015KT 00/M04 A3046 RMK A01 T00011038  RH  075%=      5-min Rain = 0
KSB1 120352Z 11016KT 00/M04 A3046 RMK A01 T00011038  RH  075%=      5-min Rain = 0
KSB1 120353Z 12016KT 00/04 A3046 RMK A01 T00000-38  RH  075%=      5-min Rain = 0
KSB1 120354Z 11015KT 00/04 A3046 RMK A01 T00000-38  RH  076%=      5-min Rain = 0
KSB1 120355Z 11014KT 00/04 A3047 RMK A01 T00-00-38  RH  076%=      5-min Rain = 0
KSB1 120356Z 11015KT 00/04 A3047 RMK A01 T00000-37  RH  076%=      5-min Rain = 0
KSB1 120357Z 11015KT 00/04 A3047 RMK A01 T00000-38  RH  076%=      5-min Rain = 0
KSB1 120358Z 11018KT 00/04 A3047 RMK A01 T00000-38  RH  076%=      5-min Rain = 0
KSB1 120359Z 11015KT 00/04 A3047 RMK A01 T00000-38  RH  076%=      5-min Rain = 0
KSB1 120400Z 11015KT M00/M04 A3047 RMK A01 T10011038  RH  076%=      5-min Rain = 0
KSB1 120401Z 11015KT 00/04 A3047 RMK A01 T00-00-38  RH  076%=      5-min Rain = 0
KSB1 120402Z 10014KT 00/04 A3047 RMK A01 T00-00-38  RH  076%=      5-min Rain = 0
KSB1 120403Z 10013KT 00/04 A3047 RMK A01 T00-00-38  RH  076%=      5-min Rain = 0
KSB1 120404Z 10015KT 00/04 A3047 RMK A01 T00-00-38  RH  076%=      5-min Rain = 0
KSB1 120405Z 10013KT 00/04 A3047 RMK A01 T00-00-38  RH  076%=      5-min Rain = 0
KSB1 120406Z 11013KT M00/M04 A3047 RMK A01 T10011038  RH  076%=      5-min Rain = 0
KSB1 120407Z 11012KT M00/M04 A3047 RMK A01 T10011038  RH  076%=      5-min Rain = 0
KSB1 120408Z 11014KT 00/04 A3047 RMK A01 T00-00-37  RH  076%=      5-min Rain = 0
KSB1 120409Z 11013KT 00/04 A3047 RMK A01 T00000-37  RH  076%=      5-min Rain = 0
KSB1 120410Z 11014KT 00/04 A3047 RMK A01 T00-00-37  RH  076%=      5-min Rain = 0
KSB1 120411Z 10015KT 00/04 A3047 RMK A01 T00-00-38  RH  076%=      5-min Rain = 0
KSB1 120412Z 10013KT 00/04 A3047 RMK A01 T00-00-38  RH  076%=      5-min Rain = 0
KSB1 120413Z 10016KT M00/M04 A3047 RMK A01 T10011038  RH  076%=      5-min Rain = 0
KSB1 120414Z 11012KT M00/M04 A3047 RMK A01 T10011038  RH  076%=      5-min Rain = 0
KSB1 120415Z 11013KT M00/M04 A3048 RMK A01 T10011038  RH  076%=      5-min Rain = 0
KSB1 120416Z 11012KT M00/M04 A3048 RMK A01 T10011038  RH  076%=      5-min Rain = 0
KSB1 120417Z 11013G19KT M00/M04 A3048 RMK A01 T10011038  RH  076%=      5-min Rain = 0
KSB1 120418Z 11018KT M00/M04 A3047 RMK A01 T10011039  RH  076%=      5-min Rain = 0
KSB1 120419Z 11015KT M00/M04 A3047 RMK A01 T10011039  RH  075%=      5-min Rain = 0
KSB1 120420Z 11015KT M00/M04 A3047 RMK A01 T10011039  RH  076%=      5-min Rain = 0
KSB1 120421Z 11015KT M00/M04 A3048 RMK A01 T10011039  RH  076%=      5-min Rain = 0
KSB1 120422Z 10016KT M00/M04 A3048 RMK A01 T10011039  RH  076%=      5-min Rain = 0
KSB1 120423Z 11012KT M00/M04 A3048 RMK A01 T10011039  RH  075%=      5-min Rain = 0
KSB1 120424Z 10015KT M00/M04 A3048 RMK A01 T10011039  RH  076%=      5-min Rain = 0
KSB1 120425Z 11016KT M00/M04 A3048 RMK A01 T10011039  RH  075%=      5-min Rain = 0
KSB1 120426Z 11015KT M00/M04 A3048 RMK A01 T10011040  RH  075%=      5-min Rain = 0
KSB1 120427Z 11013KT M00/M04 A3048 RMK A01 T10011040  RH  075%=      5-min Rain = 0
KSB1 120428Z 11014KT M00/M04 A3048 RMK A01 T10011039  RH  075%=      5-min Rain = 0
KSB1 120429Z 11013KT M00/M04 A3048 RMK A01 T10021040  RH  075%=      5-min Rain = 0
KSB1 120430Z 11012KT M00/M04 A3048 RMK A01 T10011040  RH  075%=      5-min Rain = 0
KSB1 120431Z 11015KT M00/M04 A3048 RMK A01 T10011039  RH  075%=      5-min Rain = 0
KSB1 120432Z 11014KT M00/M04 A3048 RMK A01 T10011040  RH  075%=      5-min Rain = 0
KSB1 120433Z 10015KT M00/M04 A3048 RMK A01 T10021041  RH  075%=      5-min Rain = 0
KSB1 120434Z 11015KT M00/M04 A3048 RMK A01 T10021041  RH  075%=      5-min Rain = 0
KSB1 120435Z 11012G17KT M00/M04 A3048 RMK A01 T10021041  RH  075%=      5-min Rain = 0
KSB1 120436Z 11013G18KT M00/M04 A3048 RMK A01 T10021040  RH  075%=      5-min Rain = 0
KSB1 120437Z 11016KT M00/M04 A3048 RMK A01 T10021041  RH  075%=      5-min Rain = 0
KSB1 120438Z 12016KT M00/M04 A3048 RMK A01 T10031042  RH  075%=      5-min Rain = 0
KSB1 120439Z 11017G22KT M00/M04 A3048 RMK A01 T10031042  RH  075%=      5-min Rain = 0
KSB1 120440Z 12018KT M00/M04 A3048 RMK A01 T10031042  RH  075%=      5-min Rain = 0
KSB1 120441Z 11016KT M00/M04 A3048 RMK A01 T10041043  RH  075%=      5-min Rain = 0
KSB1 120442Z 11017KT M00/M04 A3048 RMK A01 T10041043  RH  075%=      5-min Rain = 0
KSB1 120443Z 11018KT M00/M04 A3048 RMK A01 T10041043  RH  075%=      5-min Rain = 0
KSB1 120444Z 11016KT M00/M04 A3048 RMK A01 T10041043  RH  075%=      5-min Rain = 0
KSB1 120445Z 11014KT M00/M04 A3049 RMK A01 T10041042  RH  075%=      5-min Rain = 0
KSB1 120446Z 11013KT M00/M04 A3048 RMK A01 T10041042  RH  076%=      5-min Rain = 0
KSB1 120447Z 10014KT M00/M04 A3048 RMK A01 T10041042  RH  076%=      5-min Rain = 0
KSB1 120448Z 10016KT M00/M04 A3048 RMK A01 T10041042  RH  076%=      5-min Rain = 0
KSB1 120449Z 11015KT M00/M04 A3048 RMK A01 T10041043  RH  075%=      5-min Rain = 0
KSB1 120450Z 10013KT M01/M04 A3048 RMK A01 T10051043  RH  075%=      5-min Rain = 0
KSB1 120451Z 10015KT M01/M04 A3048 RMK A01 T10051043  RH  075%=      5-min Rain = 0
KSB1 120452Z 11013KT M01/M04 A3048 RMK A01 T10051043  RH  075%=      5-min Rain = 0
KSB1 120453Z 11014KT M01/M04 A3048 RMK A01 T10051043  RH  076%=      5-min Rain = 0
KSB1 120454Z 11011KT M01/M04 A3048 RMK A01 T10051042  RH  076%=      5-min Rain = 0
KSB1 120455Z 11015KT M01/M04 A3048 RMK A01 T10051043  RH  076%=      5-min Rain = 0
KSB1 120456Z 11014KT M01/M04 A3048 RMK A01 T10051043  RH  075%=      5-min Rain = 0
KSB1 120457Z 11015KT M01/M04 A3048 RMK A01 T10051043  RH  075%=      5-min Rain = 0
KSB1 120458Z 11012G17KT M01/M04 A3048 RMK A01 T10051043  RH  075%=      5-min Rain = 0
KSB1 120459Z 11016KT M01/M04 A3048 RMK A01 T10051043  RH  075%=      5-min Rain = 0
KSB1 120500Z 11015KT M01/M04 A3048 RMK A01 T10051044  RH  075%=      5-min Rain = 0
KSB1 120501Z 11016KT M01/M05 A3048 RMK A01 T10051045  RH  075%=      5-min Rain = 0
KSB1 120502Z 10013KT M01/M05 A3048 RMK A01 T10051045  RH  075%=      5-min Rain = 0
KSB1 120503Z 11014KT M01/M05 A3048 RMK A01 T10061045  RH  075%=      5-min Rain = 0
KSB1 120504Z 11017KT M01/M05 A3048 RMK A01 T10051045  RH  075%=      5-min Rain = 0
KSB1 120505Z 11016KT M01/M05 A3048 RMK A01 T10051046  RH  074%=      5-min Rain = 0
KSB1 120506Z 11017KT M01/M05 A3048 RMK A01 T10061046  RH  074%=      5-min Rain = 0
KSB1 120507Z 11016KT M01/M05 A3048 RMK A01 T10061046  RH  074%=      5-min Rain = 0
KSB1 120508Z 11013KT M01/M05 A3048 RMK A01 T10061046  RH  074%=      5-min Rain = 0
KSB1 120509Z 11016KT M01/M05 A3048 RMK A01 T10061046  RH  074%=      5-min Rain = 0
KSB1 120510Z 11015KT M01/M05 A3048 RMK A01 T10061046  RH  074%=      5-min Rain = 0
KSB1 120511Z 12015KT M01/M05 A3048 RMK A01 T10061046  RH  074%=      5-min Rain = 0
KSB1 120512Z 11014KT M01/M05 A3048 RMK A01 T10061046  RH  074%=      5-min Rain = 0
KSB1 120513Z 11017KT M01/M05 A3048 RMK A01 T10061047  RH  074%=      5-min Rain = 0
KSB1 120514Z 10013KT M01/M05 A3049 RMK A01 T10061047  RH  074%=      5-min Rain = 0
KSB1 120515Z 11013KT M01/M05 A3049 RMK A01 T10051046  RH  074%=      5-min Rain = 0
KSB1 120516Z 11013KT M01/M05 A3049 RMK A01 T10061047  RH  074%=      5-min Rain = 0
KSB1 120517Z 11015KT M01/M05 A3049 RMK A01 T10061047  RH  074%=      5-min Rain = 0
KSB1 120518Z 11014KT M01/M05 A3049 RMK A01 T10061047  RH  073%=      5-min Rain = 0
KSB1 120519Z 11013KT M01/M05 A3049 RMK A01 T10051047  RH  073%=      5-min Rain = 0
KSB1 120520Z 11013KT M01/M05 A3049 RMK A01 T10061047  RH  073%=      5-min Rain = 0
KSB1 120521Z 11014KT M01/M05 A3049 RMK A01 T10061047  RH  073%=      5-min Rain = 0
KSB1 120522Z 11016KT M01/M05 A3049 RMK A01 T10051047  RH  073%=      5-min Rain = 0
KSB1 120523Z 11016KT M01/M05 A3048 RMK A01 T10051048  RH  073%=      5-min Rain = 0
KSB1 120524Z 11014KT M01/M05 A3048 RMK A01 T10051048  RH  073%=      5-min Rain = 0
KSB1 120525Z 11014KT M01/M05 A3048 RMK A01 T10061048  RH  073%=      5-min Rain = 0
KSB1 120526Z 11014KT M01/M05 A3048 RMK A01 T10061048  RH  073%=      5-min Rain = 0
KSB1 120527Z 11015KT M01/M05 A3048 RMK A01 T10061048  RH  073%=      5-min Rain = 0
KSB1 120528Z 11014KT M01/M05 A3048 RMK A01 T10061048  RH  073%=      5-min Rain = 0
KSB1 120529Z 11013KT M01/M05 A3049 RMK A01 T10051048  RH  073%=      5-min Rain = 0
KSB1 120530Z 11014KT M01/M05 A3049 RMK A01 T10051048  RH  073%=      5-min Rain = 0
KSB1 120531Z 11013KT M01/M05 A3049 RMK A01 T10051049  RH  073%=      5-min Rain = 0
KSB1 120532Z 10013KT M01/M05 A3049 RMK A01 T10061049  RH  073%=      5-min Rain = 0
KSB1 120533Z 11012KT M01/M05 A3049 RMK A01 T10051048  RH  073%=      5-min Rain = 0
KSB1 120534Z 12013KT M01/M05 A3049 RMK A01 T10061049  RH  073%=      5-min Rain = 0
KSB1 120535Z 11012KT M01/M05 A3049 RMK A01 T10051049  RH  073%=      5-min Rain = 0
KSB1 120536Z 11015KT M01/M05 A3049 RMK A01 T10051049  RH  072%=      5-min Rain = 0
KSB1 120537Z 11015KT M01/M05 A3049 RMK A01 T10051049  RH  072%=      5-min Rain = 0
KSB1 120538Z 12013KT M01/M05 A3049 RMK A01 T10051049  RH  072%=      5-min Rain = 0
KSB1 120539Z 11011KT M01/M05 A3049 RMK A01 T10051049  RH  072%=      5-min Rain = 0
KSB1 120540Z 11014G19KT M01/M05 A3049 RMK A01 T10051049  RH  072%=      5-min Rain = 0
KSB1 120541Z 11015KT M01/M05 A3049 RMK A01 T10051050  RH  072%=      5-min Rain = 0
KSB1 120542Z 11015KT M01/M05 A3049 RMK A01 T10051050  RH  072%=      5-min Rain = 0
KSB1 120543Z 11013KT M01/M05 A3049 RMK A01 T10051050  RH  072%=      5-min Rain = 0
KSB1 120544Z 10014KT M01/M05 A3049 RMK A01 T10051050  RH  072%=      5-min Rain = 0
KSB1 120545Z 11013KT M01/M05 A3049 RMK A01 T10051050  RH  072%=      5-min Rain = 0
KSB1 120546Z 11012KT M01/M05 A3049 RMK A01 T10051050  RH  072%=      5-min Rain = 0
KSB1 120547Z 11014KT M01/M05 A3049 RMK A01 T10051050  RH  072%=      5-min Rain = 0
KSB1 120548Z 11016KT M01/M05 A3049 RMK A01 T10051051  RH  071%=      5-min Rain = 0
KSB1 120549Z 11013KT M00/M05 A3049 RMK A01 T10041051  RH  071%=      5-min Rain = 0
KSB1 120550Z 10012KT M01/M05 A3049 RMK A01 T10051051  RH  071%=      5-min Rain = 0
KSB1 120551Z 10011KT M01/M05 A3049 RMK A01 T10051051  RH  071%=      5-min Rain = 0
KSB1 120552Z 10012KT M01/M05 A3049 RMK A01 T10051050  RH  071%=      5-min Rain = 0
KSB1 120553Z 10016KT M01/M05 A3049 RMK A01 T10051051  RH  071%=      5-min Rain = 0
KSB1 120554Z 11016KT M01/M05 A3049 RMK A01 T10051052  RH  071%=      5-min Rain = 0
KSB1 120555Z 10012KT M00/M05 A3049 RMK A01 T10041051  RH  071%=      5-min Rain = 0
KSB1 120556Z 10012KT M01/M05 A3049 RMK A01 T10051051  RH  071%=      5-min Rain = 0
KSB1 120557Z 10014KT M01/M05 A3049 RMK A01 T10051051  RH  071%=      5-min Rain = 0
KSB1 120558Z 10016KT M01/M05 A3049 RMK A01 T10051052  RH  070%=      5-min Rain = 0
KSB1 120559Z 10015KT M01/M05 A3049 RMK A01 T10051052  RH  070%=      5-min Rain = 0

Page generated in 0.1237 seconds.